<?xml version="1.0" encoding="UTF-8" standalone="no" ?>
<gpx xmlns="http://www.topografix.com/GPX/1/1" xmlns:xsi="http://www.w3.org/2001/XMLSchema-instance" xsi:schemaLocation="http://www.topografix.com/GPX/1/1 http://www.topografix.com/GPX/1/1/gpx.xsd" version="1.1" creator="VisuGPX - https://www.visugpx.com">
  <metadata>
    <name>Chalabre La regate 13km</name>
    <desc><![CDATA[Chalabre La regate 13km]]></desc>
  </metadata>
  <trk>
    <name><![CDATA[Parcours Nord Enfants]]></name>
    <trkseg>
      <trkpt lat="42.98322" lon="2.00128">
        <ele>391.9</ele>
        <time>2014-02-15T11:59:27.000Z</time>
      </trkpt>
      <trkpt lat="42.98672" lon="1.99916">
        <ele>391.9</ele>
        <time>2014-02-15T11:59:28.000Z</time>
      </trkpt>
      <trkpt lat="42.9838" lon="2.00093">
        <ele>391.4</ele>
        <time>2014-02-15T11:59:29.000Z</time>
      </trkpt>
      <trkpt lat="42.98455" lon="2.0007">
        <ele>392.8</ele>
        <time>2014-02-15T11:59:30.000Z</time>
      </trkpt>
      <trkpt lat="42.98506" lon="2.00053">
        <ele>392.4</ele>
        <time>2014-02-15T11:59:31.000Z</time>
      </trkpt>
      <trkpt lat="42.98569" lon="2.0002">
        <ele>391.9</ele>
        <time>2014-02-15T11:59:32.000Z</time>
      </trkpt>
      <trkpt lat="42.98581" lon="2.00014">
        <ele>392.4</ele>
        <time>2014-02-15T11:59:33.000Z</time>
      </trkpt>
      <trkpt lat="42.98622" lon="1.99993">
        <ele>392.4</ele>
        <time>2014-02-15T11:59:34.000Z</time>
      </trkpt>
      <trkpt lat="42.98668" lon="1.99936">
        <ele>391.9</ele>
        <time>2014-02-15T11:59:35.000Z</time>
      </trkpt>
      <trkpt lat="42.9868" lon="1.99889">
        <ele>392.4</ele>
        <time>2014-02-15T11:59:36.000Z</time>
      </trkpt>
      <trkpt lat="42.98687" lon="1.99852">
        <ele>392.8</ele>
        <time>2014-02-15T11:59:46.000Z</time>
      </trkpt>
      <trkpt lat="42.98686" lon="1.99798">
        <ele>396.2</ele>
        <time>2014-02-15T12:00:00.000Z</time>
      </trkpt>
      <trkpt lat="42.98684" lon="1.99771">
        <ele>397.2</ele>
        <time>2014-02-15T12:00:06.000Z</time>
      </trkpt>
      <trkpt lat="42.98678" lon="1.99742">
        <ele>399.1</ele>
        <time>2014-02-15T12:00:14.000Z</time>
      </trkpt>
      <trkpt lat="42.98663" lon="1.9971">
        <ele>402.9</ele>
        <time>2014-02-15T12:00:25.000Z</time>
      </trkpt>
      <trkpt lat="42.98655" lon="1.99693">
        <ele>404.4</ele>
        <time>2014-02-15T12:00:33.000Z</time>
      </trkpt>
      <trkpt lat="42.98657" lon="1.99693">
        <ele>404.4</ele>
        <time>2014-02-15T12:00:44.000Z</time>
      </trkpt>
      <trkpt lat="42.98657" lon="1.99693">
        <ele>402.9</ele>
        <time>2014-02-15T12:00:48.000Z</time>
      </trkpt>
      <trkpt lat="42.98651" lon="1.99684">
        <ele>402.9</ele>
        <time>2014-02-15T12:01:07.000Z</time>
      </trkpt>
      <trkpt lat="42.98653" lon="1.99658">
        <ele>405.3</ele>
        <time>2014-02-15T12:01:18.000Z</time>
      </trkpt>
      <trkpt lat="42.98663" lon="1.99633">
        <ele>406.3</ele>
        <time>2014-02-15T12:01:29.000Z</time>
      </trkpt>
      <trkpt lat="42.98664" lon="1.9963">
        <ele>405.8</ele>
        <time>2014-02-15T12:01:30.000Z</time>
      </trkpt>
      <trkpt lat="42.98667" lon="1.99627">
        <ele>407.3</ele>
        <time>2014-02-15T12:01:32.000Z</time>
      </trkpt>
      <trkpt lat="42.9867" lon="1.99624">
        <ele>407.7</ele>
        <time>2014-02-15T12:01:35.000Z</time>
      </trkpt>
      <trkpt lat="42.98671" lon="1.99622">
        <ele>407.3</ele>
        <time>2014-02-15T12:01:36.000Z</time>
      </trkpt>
      <trkpt lat="42.98671" lon="1.9962">
        <ele>407.3</ele>
        <time>2014-02-15T12:01:37.000Z</time>
      </trkpt>
      <trkpt lat="42.98672" lon="1.99618">
        <ele>407.3</ele>
        <time>2014-02-15T12:01:38.000Z</time>
      </trkpt>
      <trkpt lat="42.98673" lon="1.99615">
        <ele>407.7</ele>
        <time>2014-02-15T12:01:39.000Z</time>
      </trkpt>
      <trkpt lat="42.98681" lon="1.99604">
        <ele>410.1</ele>
        <time>2014-02-15T12:01:49.000Z</time>
      </trkpt>
      <trkpt lat="42.98683" lon="1.99601">
        <ele>410.1</ele>
        <time>2014-02-15T12:01:51.000Z</time>
      </trkpt>
      <trkpt lat="42.98683" lon="1.99599">
        <ele>409.7</ele>
        <time>2014-02-15T12:01:52.000Z</time>
      </trkpt>
      <trkpt lat="42.98684" lon="1.99597">
        <ele>411.1</ele>
        <time>2014-02-15T12:01:53.000Z</time>
      </trkpt>
      <trkpt lat="42.98686" lon="1.99596">
        <ele>411.1</ele>
        <time>2014-02-15T12:01:54.000Z</time>
      </trkpt>
      <trkpt lat="42.98691" lon="1.99589">
        <ele>411.1</ele>
        <time>2014-02-15T12:01:58.000Z</time>
      </trkpt>
      <trkpt lat="42.98692" lon="1.99587">
        <ele>411.6</ele>
        <time>2014-02-15T12:01:59.000Z</time>
      </trkpt>
      <trkpt lat="42.98694" lon="1.99584">
        <ele>411.1</ele>
        <time>2014-02-15T12:02:00.000Z</time>
      </trkpt>
      <trkpt lat="42.98695" lon="1.99582">
        <ele>413</ele>
        <time>2014-02-15T12:02:01.000Z</time>
      </trkpt>
      <trkpt lat="42.98697" lon="1.9958">
        <ele>412.5</ele>
        <time>2014-02-15T12:02:02.000Z</time>
      </trkpt>
      <trkpt lat="42.98699" lon="1.99577">
        <ele>413</ele>
        <time>2014-02-15T12:02:03.000Z</time>
      </trkpt>
      <trkpt lat="42.98701" lon="1.99575">
        <ele>413.5</ele>
        <time>2014-02-15T12:02:04.000Z</time>
      </trkpt>
      <trkpt lat="42.98703" lon="1.99572">
        <ele>412.5</ele>
        <time>2014-02-15T12:02:05.000Z</time>
      </trkpt>
      <trkpt lat="42.98715" lon="1.99555">
        <ele>414.5</ele>
        <time>2014-02-15T12:02:12.000Z</time>
      </trkpt>
      <trkpt lat="42.98726" lon="1.99539">
        <ele>416.4</ele>
        <time>2014-02-15T12:02:19.000Z</time>
      </trkpt>
      <trkpt lat="42.98734" lon="1.99518">
        <ele>417.8</ele>
        <time>2014-02-15T12:02:26.000Z</time>
      </trkpt>
      <trkpt lat="42.98735" lon="1.99501">
        <ele>418.8</ele>
        <time>2014-02-15T12:02:31.000Z</time>
      </trkpt>
      <trkpt lat="42.98726" lon="1.99467">
        <ele>421.2</ele>
        <time>2014-02-15T12:02:42.000Z</time>
      </trkpt>
      <trkpt lat="42.98721" lon="1.99455">
        <ele>417.4</ele>
        <time>2014-02-15T12:02:45.000Z</time>
      </trkpt>
      <trkpt lat="42.98719" lon="1.99451">
        <ele>418.3</ele>
        <time>2014-02-15T12:02:46.000Z</time>
      </trkpt>
      <trkpt lat="42.98701" lon="1.99403">
        <ele>418.8</ele>
        <time>2014-02-15T12:02:58.000Z</time>
      </trkpt>
      <trkpt lat="42.98694" lon="1.99384">
        <ele>419.8</ele>
        <time>2014-02-15T12:03:03.000Z</time>
      </trkpt>
      <trkpt lat="42.98692" lon="1.9938">
        <ele>418.3</ele>
        <time>2014-02-15T12:03:04.000Z</time>
      </trkpt>
      <trkpt lat="42.98691" lon="1.99377">
        <ele>419.8</ele>
        <time>2014-02-15T12:03:05.000Z</time>
      </trkpt>
      <trkpt lat="42.98691" lon="1.99373">
        <ele>419.8</ele>
        <time>2014-02-15T12:03:06.000Z</time>
      </trkpt>
      <trkpt lat="42.98691" lon="1.9937">
        <ele>420.2</ele>
        <time>2014-02-15T12:03:07.000Z</time>
      </trkpt>
      <trkpt lat="42.98677" lon="1.99347">
        <ele>423.6</ele>
        <time>2014-02-15T12:05:25.000Z</time>
      </trkpt>
      <trkpt lat="42.98675" lon="1.99347">
        <ele>420.7</ele>
        <time>2014-02-15T12:05:26.000Z</time>
      </trkpt>
      <trkpt lat="42.98673" lon="1.99345">
        <ele>422.2</ele>
        <time>2014-02-15T12:05:27.000Z</time>
      </trkpt>
      <trkpt lat="42.98672" lon="1.99343">
        <ele>423.1</ele>
        <time>2014-02-15T12:05:28.000Z</time>
      </trkpt>
      <trkpt lat="42.98654" lon="1.99307">
        <ele>425.5</ele>
        <time>2014-02-15T12:05:42.000Z</time>
      </trkpt>
      <trkpt lat="42.98634" lon="1.99259">
        <ele>425.5</ele>
        <time>2014-02-15T12:05:55.000Z</time>
      </trkpt>
      <trkpt lat="42.98629" lon="1.99248">
        <ele>424.1</ele>
        <time>2014-02-15T12:05:57.000Z</time>
      </trkpt>
      <trkpt lat="42.98617" lon="1.99227">
        <ele>424.6</ele>
        <time>2014-02-15T12:06:01.000Z</time>
      </trkpt>
      <trkpt lat="42.98614" lon="1.99222">
        <ele>424.6</ele>
        <time>2014-02-15T12:06:02.000Z</time>
      </trkpt>
      <trkpt lat="42.98611" lon="1.99218">
        <ele>423.6</ele>
        <time>2014-02-15T12:06:03.000Z</time>
      </trkpt>
      <trkpt lat="42.9859" lon="1.99187">
        <ele>425</ele>
        <time>2014-02-15T12:06:12.000Z</time>
      </trkpt>
      <trkpt lat="42.98564" lon="1.99148">
        <ele>425</ele>
        <time>2014-02-15T12:06:23.000Z</time>
      </trkpt>
      <trkpt lat="42.98547" lon="1.99115">
        <ele>428.9</ele>
        <time>2014-02-15T12:06:31.000Z</time>
      </trkpt>
      <trkpt lat="42.98544" lon="1.99107">
        <ele>430.3</ele>
        <time>2014-02-15T12:06:33.000Z</time>
      </trkpt>
      <trkpt lat="42.98532" lon="1.99064">
        <ele>433.7</ele>
        <time>2014-02-15T12:06:44.000Z</time>
      </trkpt>
      <trkpt lat="42.98531" lon="1.9906">
        <ele>434.2</ele>
        <time>2014-02-15T12:06:45.000Z</time>
      </trkpt>
      <trkpt lat="42.98526" lon="1.99015">
        <ele>438.5</ele>
        <time>2014-02-15T12:06:57.000Z</time>
      </trkpt>
      <trkpt lat="42.98518" lon="1.98964">
        <ele>437.5</ele>
        <time>2014-02-15T12:07:09.000Z</time>
      </trkpt>
      <trkpt lat="42.98511" lon="1.98932">
        <ele>437.5</ele>
        <time>2014-02-15T12:07:19.000Z</time>
      </trkpt>
      <trkpt lat="42.9851" lon="1.98936">
        <ele>438</ele>
        <time>2014-02-15T12:07:24.000Z</time>
      </trkpt>
      <trkpt lat="42.98514" lon="1.98951">
        <ele>437.5</ele>
        <time>2014-02-15T12:07:29.000Z</time>
      </trkpt>
      <trkpt lat="42.98515" lon="1.98952">
        <ele>437.1</ele>
        <time>2014-02-15T12:07:30.000Z</time>
      </trkpt>
      <trkpt lat="42.98515" lon="1.98947">
        <ele>437.5</ele>
        <time>2014-02-15T12:07:35.000Z</time>
      </trkpt>
      <trkpt lat="42.98514" lon="1.98944">
        <ele>436.6</ele>
        <time>2014-02-15T12:07:36.000Z</time>
      </trkpt>
      <trkpt lat="42.98513" lon="1.98942">
        <ele>437.1</ele>
        <time>2014-02-15T12:07:37.000Z</time>
      </trkpt>
      <trkpt lat="42.98512" lon="1.9894">
        <ele>437.5</ele>
        <time>2014-02-15T12:07:38.000Z</time>
      </trkpt>
      <trkpt lat="42.9851" lon="1.98938">
        <ele>437.1</ele>
        <time>2014-02-15T12:07:39.000Z</time>
      </trkpt>
      <trkpt lat="42.98509" lon="1.98937">
        <ele>438</ele>
        <time>2014-02-15T12:07:40.000Z</time>
      </trkpt>
      <trkpt lat="42.98509" lon="1.98936">
        <ele>439</ele>
        <time>2014-02-15T12:07:41.000Z</time>
      </trkpt>
      <trkpt lat="42.98508" lon="1.98933">
        <ele>438</ele>
        <time>2014-02-15T12:07:42.000Z</time>
      </trkpt>
      <trkpt lat="42.98507" lon="1.98931">
        <ele>439.5</ele>
        <time>2014-02-15T12:07:43.000Z</time>
      </trkpt>
      <trkpt lat="42.98505" lon="1.98929">
        <ele>439.5</ele>
        <time>2014-02-15T12:07:44.000Z</time>
      </trkpt>
      <trkpt lat="42.98504" lon="1.98927">
        <ele>440.4</ele>
        <time>2014-02-15T12:07:45.000Z</time>
      </trkpt>
      <trkpt lat="42.98503" lon="1.98924">
        <ele>439.5</ele>
        <time>2014-02-15T12:07:46.000Z</time>
      </trkpt>
      <trkpt lat="42.98502" lon="1.98921">
        <ele>439.9</ele>
        <time>2014-02-15T12:07:47.000Z</time>
      </trkpt>
      <trkpt lat="42.98501" lon="1.98913">
        <ele>440.9</ele>
        <time>2014-02-15T12:07:50.000Z</time>
      </trkpt>
      <trkpt lat="42.98501" lon="1.98911">
        <ele>440.9</ele>
        <time>2014-02-15T12:07:51.000Z</time>
      </trkpt>
      <trkpt lat="42.98496" lon="1.98904">
        <ele>443.8</ele>
        <time>2014-02-15T12:07:56.000Z</time>
      </trkpt>
      <trkpt lat="42.98496" lon="1.98903">
        <ele>442.3</ele>
        <time>2014-02-15T12:07:57.000Z</time>
      </trkpt>
      <trkpt lat="42.98495" lon="1.98896">
        <ele>441.9</ele>
        <time>2014-02-15T12:08:02.000Z</time>
      </trkpt>
      <trkpt lat="42.98494" lon="1.98894">
        <ele>442.8</ele>
        <time>2014-02-15T12:08:03.000Z</time>
      </trkpt>
      <trkpt lat="42.98493" lon="1.98891">
        <ele>443.8</ele>
        <time>2014-02-15T12:08:04.000Z</time>
      </trkpt>
      <trkpt lat="42.98491" lon="1.98888">
        <ele>444.3</ele>
        <time>2014-02-15T12:08:05.000Z</time>
      </trkpt>
      <trkpt lat="42.9849" lon="1.98886">
        <ele>443.3</ele>
        <time>2014-02-15T12:08:06.000Z</time>
      </trkpt>
      <trkpt lat="42.98489" lon="1.98884">
        <ele>443.3</ele>
        <time>2014-02-15T12:08:07.000Z</time>
      </trkpt>
      <trkpt lat="42.98487" lon="1.98883">
        <ele>445.7</ele>
        <time>2014-02-15T12:08:08.000Z</time>
      </trkpt>
      <trkpt lat="42.98485" lon="1.98881">
        <ele>444.8</ele>
        <time>2014-02-15T12:08:09.000Z</time>
      </trkpt>
      <trkpt lat="42.98481" lon="1.98872">
        <ele>446.2</ele>
        <time>2014-02-15T12:08:13.000Z</time>
      </trkpt>
      <trkpt lat="42.9847" lon="1.98844">
        <ele>448.1</ele>
        <time>2014-02-15T12:08:25.000Z</time>
      </trkpt>
      <trkpt lat="42.98468" lon="1.98839">
        <ele>450</ele>
        <time>2014-02-15T12:08:27.000Z</time>
      </trkpt>
      <trkpt lat="42.98468" lon="1.98836">
        <ele>447.6</ele>
        <time>2014-02-15T12:08:28.000Z</time>
      </trkpt>
      <trkpt lat="42.98468" lon="1.98833">
        <ele>447.6</ele>
        <time>2014-02-15T12:08:29.000Z</time>
      </trkpt>
      <trkpt lat="42.98467" lon="1.98829">
        <ele>447.6</ele>
        <time>2014-02-15T12:08:30.000Z</time>
      </trkpt>
      <trkpt lat="42.98467" lon="1.98827">
        <ele>448.1</ele>
        <time>2014-02-15T12:08:31.000Z</time>
      </trkpt>
      <trkpt lat="42.98466" lon="1.98824">
        <ele>447.2</ele>
        <time>2014-02-15T12:08:32.000Z</time>
      </trkpt>
      <trkpt lat="42.98465" lon="1.98822">
        <ele>446.2</ele>
        <time>2014-02-15T12:08:33.000Z</time>
      </trkpt>
      <trkpt lat="42.98465" lon="1.98819">
        <ele>449.1</ele>
        <time>2014-02-15T12:08:34.000Z</time>
      </trkpt>
      <trkpt lat="42.98464" lon="1.98817">
        <ele>448.6</ele>
        <time>2014-02-15T12:08:35.000Z</time>
      </trkpt>
      <trkpt lat="42.98463" lon="1.98816">
        <ele>447.6</ele>
        <time>2014-02-15T12:08:36.000Z</time>
      </trkpt>
      <trkpt lat="42.98463" lon="1.98814">
        <ele>447.6</ele>
        <time>2014-02-15T12:08:37.000Z</time>
      </trkpt>
      <trkpt lat="42.98463" lon="1.98812">
        <ele>447.2</ele>
        <time>2014-02-15T12:08:38.000Z</time>
      </trkpt>
      <trkpt lat="42.98465" lon="1.98789">
        <ele>448.6</ele>
        <time>2014-02-15T12:08:49.000Z</time>
      </trkpt>
      <trkpt lat="42.98464" lon="1.9878">
        <ele>448.1</ele>
        <time>2014-02-15T12:09:01.000Z</time>
      </trkpt>
      <trkpt lat="42.98464" lon="1.98779">
        <ele>449.6</ele>
        <time>2014-02-15T12:09:07.000Z</time>
      </trkpt>
      <trkpt lat="42.98464" lon="1.98779">
        <ele>448.6</ele>
        <time>2014-02-15T12:09:14.000Z</time>
      </trkpt>
      <trkpt lat="42.98464" lon="1.98779">
        <ele>448.1</ele>
        <time>2014-02-15T12:09:27.000Z</time>
      </trkpt>
      <trkpt lat="42.98464" lon="1.98779">
        <ele>449.1</ele>
        <time>2014-02-15T12:09:45.000Z</time>
      </trkpt>
      <trkpt lat="42.98464" lon="1.98779">
        <ele>448.1</ele>
        <time>2014-02-15T12:09:47.000Z</time>
      </trkpt>
      <trkpt lat="42.98464" lon="1.98779">
        <ele>447.6</ele>
        <time>2014-02-15T12:09:54.000Z</time>
      </trkpt>
      <trkpt lat="42.98464" lon="1.98779">
        <ele>451</ele>
        <time>2014-02-15T12:10:28.000Z</time>
      </trkpt>
      <trkpt lat="42.98464" lon="1.98779">
        <ele>447.6</ele>
        <time>2014-02-15T12:10:47.000Z</time>
      </trkpt>
      <trkpt lat="42.98464" lon="1.98778">
        <ele>447.2</ele>
        <time>2014-02-15T12:11:12.000Z</time>
      </trkpt>
      <trkpt lat="42.98464" lon="1.98778">
        <ele>450.5</ele>
        <time>2014-02-15T12:11:41.000Z</time>
      </trkpt>
      <trkpt lat="42.98464" lon="1.98778">
        <ele>450</ele>
        <time>2014-02-15T12:11:42.000Z</time>
      </trkpt>
      <trkpt lat="42.98464" lon="1.98778">
        <ele>449.1</ele>
        <time>2014-02-15T12:11:44.000Z</time>
      </trkpt>
      <trkpt lat="42.98464" lon="1.98778">
        <ele>448.1</ele>
        <time>2014-02-15T12:12:07.000Z</time>
      </trkpt>
      <trkpt lat="42.98464" lon="1.98778">
        <ele>449.6</ele>
        <time>2014-02-15T12:12:14.000Z</time>
      </trkpt>
      <trkpt lat="42.98465" lon="1.98778">
        <ele>449.1</ele>
        <time>2014-02-15T12:12:40.000Z</time>
      </trkpt>
      <trkpt lat="42.98465" lon="1.98778">
        <ele>448.6</ele>
        <time>2014-02-15T12:12:45.000Z</time>
      </trkpt>
      <trkpt lat="42.98465" lon="1.98778">
        <ele>449.1</ele>
        <time>2014-02-15T12:13:30.000Z</time>
      </trkpt>
      <trkpt lat="42.98465" lon="1.98778">
        <ele>448.6</ele>
        <time>2014-02-15T12:14:19.000Z</time>
      </trkpt>
      <trkpt lat="42.98465" lon="1.98778">
        <ele>451.5</ele>
        <time>2014-02-15T12:15:25.000Z</time>
      </trkpt>
      <trkpt lat="42.98465" lon="1.98777">
        <ele>450.5</ele>
        <time>2014-02-15T12:16:08.000Z</time>
      </trkpt>
      <trkpt lat="42.98463" lon="1.98772">
        <ele>450.5</ele>
        <time>2014-02-15T12:16:47.000Z</time>
      </trkpt>
      <trkpt lat="42.98462" lon="1.98767">
        <ele>449.6</ele>
        <time>2014-02-15T12:16:52.000Z</time>
      </trkpt>
      <trkpt lat="42.98453" lon="1.98735">
        <ele>450.5</ele>
        <time>2014-02-15T12:17:06.000Z</time>
      </trkpt>
      <trkpt lat="42.98452" lon="1.98731">
        <ele>450.5</ele>
        <time>2014-02-15T12:17:08.000Z</time>
      </trkpt>
      <trkpt lat="42.98445" lon="1.98709">
        <ele>452.4</ele>
        <time>2014-02-15T12:17:19.000Z</time>
      </trkpt>
      <trkpt lat="42.98437" lon="1.98685">
        <ele>453.9</ele>
        <time>2014-02-15T12:17:31.000Z</time>
      </trkpt>
      <trkpt lat="42.98436" lon="1.98684">
        <ele>453.4</ele>
        <time>2014-02-15T12:17:32.000Z</time>
      </trkpt>
      <trkpt lat="42.98435" lon="1.98681">
        <ele>453.9</ele>
        <time>2014-02-15T12:17:33.000Z</time>
      </trkpt>
      <trkpt lat="42.98423" lon="1.9866">
        <ele>456.8</ele>
        <time>2014-02-15T12:17:42.000Z</time>
      </trkpt>
      <trkpt lat="42.98419" lon="1.98643">
        <ele>457.7</ele>
        <time>2014-02-15T12:17:49.000Z</time>
      </trkpt>
      <trkpt lat="42.98419" lon="1.98641">
        <ele>456.8</ele>
        <time>2014-02-15T12:17:50.000Z</time>
      </trkpt>
      <trkpt lat="42.98419" lon="1.98638">
        <ele>457.2</ele>
        <time>2014-02-15T12:17:51.000Z</time>
      </trkpt>
      <trkpt lat="42.98419" lon="1.98636">
        <ele>457.2</ele>
        <time>2014-02-15T12:17:52.000Z</time>
      </trkpt>
      <trkpt lat="42.98419" lon="1.98633">
        <ele>457.2</ele>
        <time>2014-02-15T12:17:53.000Z</time>
      </trkpt>
      <trkpt lat="42.98419" lon="1.9863">
        <ele>457.7</ele>
        <time>2014-02-15T12:17:54.000Z</time>
      </trkpt>
      <trkpt lat="42.98419" lon="1.98627">
        <ele>455.8</ele>
        <time>2014-02-15T12:17:55.000Z</time>
      </trkpt>
      <trkpt lat="42.98419" lon="1.98624">
        <ele>456.3</ele>
        <time>2014-02-15T12:17:56.000Z</time>
      </trkpt>
      <trkpt lat="42.98419" lon="1.98622">
        <ele>457.2</ele>
        <time>2014-02-15T12:17:57.000Z</time>
      </trkpt>
      <trkpt lat="42.98418" lon="1.98619">
        <ele>458.2</ele>
        <time>2014-02-15T12:17:58.000Z</time>
      </trkpt>
      <trkpt lat="42.98414" lon="1.98606">
        <ele>456.3</ele>
        <time>2014-02-15T12:18:04.000Z</time>
      </trkpt>
      <trkpt lat="42.98414" lon="1.98603">
        <ele>456.8</ele>
        <time>2014-02-15T12:18:05.000Z</time>
      </trkpt>
      <trkpt lat="42.98413" lon="1.98602">
        <ele>456.3</ele>
        <time>2014-02-15T12:18:06.000Z</time>
      </trkpt>
      <trkpt lat="42.98412" lon="1.986">
        <ele>456.3</ele>
        <time>2014-02-15T12:18:07.000Z</time>
      </trkpt>
      <trkpt lat="42.98412" lon="1.98597">
        <ele>455.8</ele>
        <time>2014-02-15T12:18:08.000Z</time>
      </trkpt>
      <trkpt lat="42.98411" lon="1.98595">
        <ele>455.3</ele>
        <time>2014-02-15T12:18:09.000Z</time>
      </trkpt>
      <trkpt lat="42.98408" lon="1.98588">
        <ele>455.3</ele>
        <time>2014-02-15T12:18:13.000Z</time>
      </trkpt>
      <trkpt lat="42.98408" lon="1.98586">
        <ele>454.4</ele>
        <time>2014-02-15T12:18:14.000Z</time>
      </trkpt>
      <trkpt lat="42.98407" lon="1.98583">
        <ele>456.3</ele>
        <time>2014-02-15T12:18:15.000Z</time>
      </trkpt>
      <trkpt lat="42.98406" lon="1.98575">
        <ele>455.8</ele>
        <time>2014-02-15T12:18:19.000Z</time>
      </trkpt>
      <trkpt lat="42.98405" lon="1.98572">
        <ele>456.3</ele>
        <time>2014-02-15T12:18:21.000Z</time>
      </trkpt>
      <trkpt lat="42.98405" lon="1.98571">
        <ele>455.3</ele>
        <time>2014-02-15T12:18:22.000Z</time>
      </trkpt>
      <trkpt lat="42.98405" lon="1.98569">
        <ele>455.8</ele>
        <time>2014-02-15T12:18:23.000Z</time>
      </trkpt>
      <trkpt lat="42.98403" lon="1.98559">
        <ele>455.8</ele>
        <time>2014-02-15T12:18:38.000Z</time>
      </trkpt>
      <trkpt lat="42.98402" lon="1.98553">
        <ele>454.8</ele>
        <time>2014-02-15T12:18:52.000Z</time>
      </trkpt>
      <trkpt lat="42.98402" lon="1.98552">
        <ele>456.8</ele>
        <time>2014-02-15T12:18:54.000Z</time>
      </trkpt>
      <trkpt lat="42.98401" lon="1.9855">
        <ele>454.4</ele>
        <time>2014-02-15T12:18:57.000Z</time>
      </trkpt>
      <trkpt lat="42.98401" lon="1.9855">
        <ele>455.3</ele>
        <time>2014-02-15T12:19:27.000Z</time>
      </trkpt>
      <trkpt lat="42.98401" lon="1.9855">
        <ele>454.4</ele>
        <time>2014-02-15T12:19:31.000Z</time>
      </trkpt>
      <trkpt lat="42.98401" lon="1.9855">
        <ele>456.3</ele>
        <time>2014-02-15T12:19:33.000Z</time>
      </trkpt>
      <trkpt lat="42.98401" lon="1.9855">
        <ele>454.8</ele>
        <time>2014-02-15T12:20:15.000Z</time>
      </trkpt>
      <trkpt lat="42.98401" lon="1.9855">
        <ele>455.3</ele>
        <time>2014-02-15T12:20:28.000Z</time>
      </trkpt>
      <trkpt lat="42.98401" lon="1.9855">
        <ele>455.8</ele>
        <time>2014-02-15T12:20:49.000Z</time>
      </trkpt>
      <trkpt lat="42.98401" lon="1.9855">
        <ele>455.8</ele>
        <time>2014-02-15T12:20:53.000Z</time>
      </trkpt>
      <trkpt lat="42.98401" lon="1.9855">
        <ele>454.4</ele>
        <time>2014-02-15T12:21:18.000Z</time>
      </trkpt>
      <trkpt lat="42.98401" lon="1.9855">
        <ele>454.8</ele>
        <time>2014-02-15T12:21:24.000Z</time>
      </trkpt>
      <trkpt lat="42.98401" lon="1.98549">
        <ele>454.8</ele>
        <time>2014-02-15T12:21:35.000Z</time>
      </trkpt>
      <trkpt lat="42.98398" lon="1.98546">
        <ele>454.8</ele>
        <time>2014-02-15T12:22:33.000Z</time>
      </trkpt>
      <trkpt lat="42.98397" lon="1.98544">
        <ele>454.8</ele>
        <time>2014-02-15T12:22:50.000Z</time>
      </trkpt>
      <trkpt lat="42.98395" lon="1.9853">
        <ele>455.3</ele>
        <time>2014-02-15T12:22:57.000Z</time>
      </trkpt>
      <trkpt lat="42.98392" lon="1.98521">
        <ele>456.3</ele>
        <time>2014-02-15T12:23:01.000Z</time>
      </trkpt>
      <trkpt lat="42.98391" lon="1.98518">
        <ele>455.8</ele>
        <time>2014-02-15T12:23:02.000Z</time>
      </trkpt>
      <trkpt lat="42.9839" lon="1.98515">
        <ele>456.3</ele>
        <time>2014-02-15T12:23:03.000Z</time>
      </trkpt>
      <trkpt lat="42.98389" lon="1.98513">
        <ele>456.3</ele>
        <time>2014-02-15T12:23:04.000Z</time>
      </trkpt>
      <trkpt lat="42.98389" lon="1.9851">
        <ele>457.2</ele>
        <time>2014-02-15T12:23:05.000Z</time>
      </trkpt>
      <trkpt lat="42.98389" lon="1.98507">
        <ele>455.8</ele>
        <time>2014-02-15T12:23:06.000Z</time>
      </trkpt>
      <trkpt lat="42.98389" lon="1.98504">
        <ele>457.2</ele>
        <time>2014-02-15T12:23:07.000Z</time>
      </trkpt>
      <trkpt lat="42.98389" lon="1.98473">
        <ele>456.3</ele>
        <time>2014-02-15T12:23:16.000Z</time>
      </trkpt>
      <trkpt lat="42.9839" lon="1.9847">
        <ele>456.3</ele>
        <time>2014-02-15T12:23:17.000Z</time>
      </trkpt>
      <trkpt lat="42.9839" lon="1.98467">
        <ele>457.2</ele>
        <time>2014-02-15T12:23:18.000Z</time>
      </trkpt>
      <trkpt lat="42.98391" lon="1.98463">
        <ele>455.8</ele>
        <time>2014-02-15T12:23:20.000Z</time>
      </trkpt>
      <trkpt lat="42.98392" lon="1.98461">
        <ele>454.8</ele>
        <time>2014-02-15T12:23:21.000Z</time>
      </trkpt>
      <trkpt lat="42.98393" lon="1.98457">
        <ele>455.3</ele>
        <time>2014-02-15T12:23:22.000Z</time>
      </trkpt>
      <trkpt lat="42.98394" lon="1.98454">
        <ele>456.3</ele>
        <time>2014-02-15T12:23:24.000Z</time>
      </trkpt>
      <trkpt lat="42.98396" lon="1.9845">
        <ele>455.8</ele>
        <time>2014-02-15T12:23:31.000Z</time>
      </trkpt>
      <trkpt lat="42.98397" lon="1.98449">
        <ele>456.8</ele>
        <time>2014-02-15T12:23:42.000Z</time>
      </trkpt>
      <trkpt lat="42.98398" lon="1.98448">
        <ele>455.8</ele>
        <time>2014-02-15T12:23:43.000Z</time>
      </trkpt>
      <trkpt lat="42.984" lon="1.98446">
        <ele>455.8</ele>
        <time>2014-02-15T12:23:44.000Z</time>
      </trkpt>
      <trkpt lat="42.98401" lon="1.98443">
        <ele>454.8</ele>
        <time>2014-02-15T12:23:45.000Z</time>
      </trkpt>
      <trkpt lat="42.98402" lon="1.98439">
        <ele>455.8</ele>
        <time>2014-02-15T12:23:46.000Z</time>
      </trkpt>
      <trkpt lat="42.98414" lon="1.98415">
        <ele>457.7</ele>
        <time>2014-02-15T12:23:55.000Z</time>
      </trkpt>
      <trkpt lat="42.98414" lon="1.98413">
        <ele>458.2</ele>
        <time>2014-02-15T12:23:56.000Z</time>
      </trkpt>
      <trkpt lat="42.98415" lon="1.98411">
        <ele>458.7</ele>
        <time>2014-02-15T12:23:57.000Z</time>
      </trkpt>
      <trkpt lat="42.98416" lon="1.98408">
        <ele>459.7</ele>
        <time>2014-02-15T12:23:58.000Z</time>
      </trkpt>
      <trkpt lat="42.98416" lon="1.98405">
        <ele>458.7</ele>
        <time>2014-02-15T12:23:59.000Z</time>
      </trkpt>
      <trkpt lat="42.98416" lon="1.98403">
        <ele>458.7</ele>
        <time>2014-02-15T12:24:00.000Z</time>
      </trkpt>
      <trkpt lat="42.98418" lon="1.984">
        <ele>458.7</ele>
        <time>2014-02-15T12:24:01.000Z</time>
      </trkpt>
      <trkpt lat="42.98419" lon="1.98397">
        <ele>458.7</ele>
        <time>2014-02-15T12:24:02.000Z</time>
      </trkpt>
      <trkpt lat="42.98419" lon="1.98394">
        <ele>458.7</ele>
        <time>2014-02-15T12:24:03.000Z</time>
      </trkpt>
      <trkpt lat="42.9842" lon="1.98391">
        <ele>459.2</ele>
        <time>2014-02-15T12:24:04.000Z</time>
      </trkpt>
      <trkpt lat="42.98421" lon="1.98387">
        <ele>458.7</ele>
        <time>2014-02-15T12:24:05.000Z</time>
      </trkpt>
      <trkpt lat="42.98422" lon="1.98384">
        <ele>458.7</ele>
        <time>2014-02-15T12:24:06.000Z</time>
      </trkpt>
      <trkpt lat="42.98423" lon="1.9838">
        <ele>459.7</ele>
        <time>2014-02-15T12:24:07.000Z</time>
      </trkpt>
      <trkpt lat="42.98424" lon="1.98378">
        <ele>459.2</ele>
        <time>2014-02-15T12:24:08.000Z</time>
      </trkpt>
      <trkpt lat="42.98425" lon="1.98375">
        <ele>459.2</ele>
        <time>2014-02-15T12:24:09.000Z</time>
      </trkpt>
      <trkpt lat="42.98425" lon="1.98373">
        <ele>459.7</ele>
        <time>2014-02-15T12:24:10.000Z</time>
      </trkpt>
      <trkpt lat="42.98426" lon="1.9837">
        <ele>458.7</ele>
        <time>2014-02-15T12:24:11.000Z</time>
      </trkpt>
      <trkpt lat="42.98426" lon="1.98366">
        <ele>459.2</ele>
        <time>2014-02-15T12:24:12.000Z</time>
      </trkpt>
      <trkpt lat="42.98426" lon="1.98363">
        <ele>459.7</ele>
        <time>2014-02-15T12:24:13.000Z</time>
      </trkpt>
      <trkpt lat="42.98427" lon="1.9836">
        <ele>460.1</ele>
        <time>2014-02-15T12:24:14.000Z</time>
      </trkpt>
      <trkpt lat="42.98427" lon="1.98358">
        <ele>459.2</ele>
        <time>2014-02-15T12:24:15.000Z</time>
      </trkpt>
      <trkpt lat="42.98428" lon="1.98355">
        <ele>460.1</ele>
        <time>2014-02-15T12:24:16.000Z</time>
      </trkpt>
      <trkpt lat="42.98428" lon="1.98353">
        <ele>459.7</ele>
        <time>2014-02-15T12:24:17.000Z</time>
      </trkpt>
      <trkpt lat="42.98429" lon="1.9835">
        <ele>459.7</ele>
        <time>2014-02-15T12:24:18.000Z</time>
      </trkpt>
      <trkpt lat="42.9843" lon="1.98346">
        <ele>460.1</ele>
        <time>2014-02-15T12:24:19.000Z</time>
      </trkpt>
      <trkpt lat="42.98431" lon="1.98343">
        <ele>459.7</ele>
        <time>2014-02-15T12:24:20.000Z</time>
      </trkpt>
      <trkpt lat="42.98431" lon="1.9834">
        <ele>460.6</ele>
        <time>2014-02-15T12:24:21.000Z</time>
      </trkpt>
      <trkpt lat="42.98427" lon="1.98316">
        <ele>462.1</ele>
        <time>2014-02-15T12:24:30.000Z</time>
      </trkpt>
      <trkpt lat="42.98424" lon="1.98304">
        <ele>462.5</ele>
        <time>2014-02-15T12:24:35.000Z</time>
      </trkpt>
      <trkpt lat="42.98423" lon="1.98301">
        <ele>462.5</ele>
        <time>2014-02-15T12:24:36.000Z</time>
      </trkpt>
      <trkpt lat="42.98423" lon="1.98298">
        <ele>461.1</ele>
        <time>2014-02-15T12:24:37.000Z</time>
      </trkpt>
      <trkpt lat="42.98422" lon="1.98295">
        <ele>463</ele>
        <time>2014-02-15T12:24:38.000Z</time>
      </trkpt>
      <trkpt lat="42.98422" lon="1.98292">
        <ele>463.5</ele>
        <time>2014-02-15T12:24:39.000Z</time>
      </trkpt>
      <trkpt lat="42.98422" lon="1.9829">
        <ele>463.5</ele>
        <time>2014-02-15T12:24:40.000Z</time>
      </trkpt>
      <trkpt lat="42.98423" lon="1.98287">
        <ele>463</ele>
        <time>2014-02-15T12:24:41.000Z</time>
      </trkpt>
      <trkpt lat="42.98423" lon="1.98284">
        <ele>462.5</ele>
        <time>2014-02-15T12:24:42.000Z</time>
      </trkpt>
      <trkpt lat="42.98423" lon="1.9828">
        <ele>463</ele>
        <time>2014-02-15T12:24:45.000Z</time>
      </trkpt>
      <trkpt lat="42.98427" lon="1.98278">
        <ele>460.6</ele>
        <time>2014-02-15T12:24:48.000Z</time>
      </trkpt>
      <trkpt lat="42.98432" lon="1.98273">
        <ele>459.2</ele>
        <time>2014-02-15T12:24:52.000Z</time>
      </trkpt>
      <trkpt lat="42.98437" lon="1.98264">
        <ele>458.2</ele>
        <time>2014-02-15T12:24:57.000Z</time>
      </trkpt>
      <trkpt lat="42.98439" lon="1.9826">
        <ele>456.8</ele>
        <time>2014-02-15T12:25:00.000Z</time>
      </trkpt>
      <trkpt lat="42.98441" lon="1.98254">
        <ele>457.2</ele>
        <time>2014-02-15T12:25:06.000Z</time>
      </trkpt>
      <trkpt lat="42.98443" lon="1.9824">
        <ele>459.7</ele>
        <time>2014-02-15T12:25:18.000Z</time>
      </trkpt>
      <trkpt lat="42.98444" lon="1.98238">
        <ele>459.2</ele>
        <time>2014-02-15T12:25:19.000Z</time>
      </trkpt>
      <trkpt lat="42.98446" lon="1.98235">
        <ele>459.7</ele>
        <time>2014-02-15T12:25:22.000Z</time>
      </trkpt>
      <trkpt lat="42.98454" lon="1.98224">
        <ele>460.6</ele>
        <time>2014-02-15T12:25:35.000Z</time>
      </trkpt>
      <trkpt lat="42.98459" lon="1.98213">
        <ele>462.5</ele>
        <time>2014-02-15T12:25:46.000Z</time>
      </trkpt>
      <trkpt lat="42.98462" lon="1.98207">
        <ele>464.9</ele>
        <time>2014-02-15T12:25:58.000Z</time>
      </trkpt>
      <trkpt lat="42.98462" lon="1.98206">
        <ele>463</ele>
        <time>2014-02-15T12:26:30.000Z</time>
      </trkpt>
      <trkpt lat="42.98461" lon="1.98204">
        <ele>464.5</ele>
        <time>2014-02-15T12:26:49.000Z</time>
      </trkpt>
      <trkpt lat="42.98461" lon="1.98189">
        <ele>463.5</ele>
        <time>2014-02-15T12:26:55.000Z</time>
      </trkpt>
      <trkpt lat="42.98461" lon="1.98181">
        <ele>464.5</ele>
        <time>2014-02-15T12:26:58.000Z</time>
      </trkpt>
      <trkpt lat="42.98459" lon="1.98169">
        <ele>466.4</ele>
        <time>2014-02-15T12:27:02.000Z</time>
      </trkpt>
      <trkpt lat="42.98461" lon="1.98149">
        <ele>466.4</ele>
        <time>2014-02-15T12:27:11.000Z</time>
      </trkpt>
      <trkpt lat="42.98455" lon="1.98132">
        <ele>467.8</ele>
        <time>2014-02-15T12:27:21.000Z</time>
      </trkpt>
      <trkpt lat="42.98452" lon="1.98125">
        <ele>464.9</ele>
        <time>2014-02-15T12:27:25.000Z</time>
      </trkpt>
      <trkpt lat="42.98445" lon="1.98105">
        <ele>464.9</ele>
        <time>2014-02-15T12:27:37.000Z</time>
      </trkpt>
      <trkpt lat="42.98438" lon="1.98094">
        <ele>464.9</ele>
        <time>2014-02-15T12:27:50.000Z</time>
      </trkpt>
      <trkpt lat="42.98436" lon="1.98088">
        <ele>464.9</ele>
        <time>2014-02-15T12:27:54.000Z</time>
      </trkpt>
      <trkpt lat="42.98431" lon="1.98077">
        <ele>465.9</ele>
        <time>2014-02-15T12:28:02.000Z</time>
      </trkpt>
      <trkpt lat="42.98428" lon="1.98066">
        <ele>468.3</ele>
        <time>2014-02-15T12:28:14.000Z</time>
      </trkpt>
      <trkpt lat="42.98429" lon="1.98064">
        <ele>468.3</ele>
        <time>2014-02-15T12:28:32.000Z</time>
      </trkpt>
      <trkpt lat="42.98429" lon="1.98064">
        <ele>465.9</ele>
        <time>2014-02-15T12:28:47.000Z</time>
      </trkpt>
      <trkpt lat="42.98429" lon="1.98064">
        <ele>467.3</ele>
        <time>2014-02-15T12:28:54.000Z</time>
      </trkpt>
      <trkpt lat="42.98428" lon="1.98062">
        <ele>466.4</ele>
        <time>2014-02-15T12:29:00.000Z</time>
      </trkpt>
      <trkpt lat="42.98423" lon="1.98042">
        <ele>466.4</ele>
        <time>2014-02-15T12:29:08.000Z</time>
      </trkpt>
      <trkpt lat="42.98422" lon="1.98012">
        <ele>469.3</ele>
        <time>2014-02-15T12:29:20.000Z</time>
      </trkpt>
      <trkpt lat="42.98419" lon="1.97978">
        <ele>468.8</ele>
        <time>2014-02-15T12:29:32.000Z</time>
      </trkpt>
      <trkpt lat="42.98416" lon="1.9796">
        <ele>472.1</ele>
        <time>2014-02-15T12:29:41.000Z</time>
      </trkpt>
      <trkpt lat="42.9841" lon="1.9793">
        <ele>474.6</ele>
        <time>2014-02-15T12:29:51.000Z</time>
      </trkpt>
      <trkpt lat="42.98403" lon="1.97904">
        <ele>475.5</ele>
        <time>2014-02-15T12:29:58.000Z</time>
      </trkpt>
      <trkpt lat="42.98399" lon="1.97883">
        <ele>477.4</ele>
        <time>2014-02-15T12:30:07.000Z</time>
      </trkpt>
      <trkpt lat="42.98393" lon="1.97865">
        <ele>479.4</ele>
        <time>2014-02-15T12:30:19.000Z</time>
      </trkpt>
      <trkpt lat="42.9839" lon="1.9786">
        <ele>479.8</ele>
        <time>2014-02-15T12:30:27.000Z</time>
      </trkpt>
      <trkpt lat="42.98388" lon="1.97858">
        <ele>479.4</ele>
        <time>2014-02-15T12:30:38.000Z</time>
      </trkpt>
      <trkpt lat="42.98387" lon="1.97843">
        <ele>480.8</ele>
        <time>2014-02-15T12:30:46.000Z</time>
      </trkpt>
      <trkpt lat="42.98383" lon="1.97823">
        <ele>482.2</ele>
        <time>2014-02-15T12:30:53.000Z</time>
      </trkpt>
      <trkpt lat="42.98378" lon="1.978">
        <ele>483.7</ele>
        <time>2014-02-15T12:31:01.000Z</time>
      </trkpt>
      <trkpt lat="42.98366" lon="1.97777">
        <ele>486.1</ele>
        <time>2014-02-15T12:31:11.000Z</time>
      </trkpt>
      <trkpt lat="42.98363" lon="1.97773">
        <ele>484.6</ele>
        <time>2014-02-15T12:31:13.000Z</time>
      </trkpt>
      <trkpt lat="42.98359" lon="1.97764">
        <ele>486.6</ele>
        <time>2014-02-15T12:31:18.000Z</time>
      </trkpt>
      <trkpt lat="42.98357" lon="1.97755">
        <ele>486.1</ele>
        <time>2014-02-15T12:31:21.000Z</time>
      </trkpt>
      <trkpt lat="42.98342" lon="1.97739">
        <ele>488.5</ele>
        <time>2014-02-15T12:31:32.000Z</time>
      </trkpt>
      <trkpt lat="42.98329" lon="1.97743">
        <ele>489.9</ele>
        <time>2014-02-15T12:31:37.000Z</time>
      </trkpt>
      <trkpt lat="42.98312" lon="1.97748">
        <ele>490.4</ele>
        <time>2014-02-15T12:31:45.000Z</time>
      </trkpt>
      <trkpt lat="42.98299" lon="1.97753">
        <ele>490.9</ele>
        <time>2014-02-15T12:31:52.000Z</time>
      </trkpt>
      <trkpt lat="42.98288" lon="1.97758">
        <ele>491.4</ele>
        <time>2014-02-15T12:32:00.000Z</time>
      </trkpt>
      <trkpt lat="42.98281" lon="1.97758">
        <ele>491.9</ele>
        <time>2014-02-15T12:32:04.000Z</time>
      </trkpt>
      <trkpt lat="42.98262" lon="1.97768">
        <ele>491.9</ele>
        <time>2014-02-15T12:32:16.000Z</time>
      </trkpt>
      <trkpt lat="42.98255" lon="1.97772">
        <ele>490.9</ele>
        <time>2014-02-15T12:32:21.000Z</time>
      </trkpt>
      <trkpt lat="42.98247" lon="1.97771">
        <ele>491.4</ele>
        <time>2014-02-15T12:32:26.000Z</time>
      </trkpt>
      <trkpt lat="42.98244" lon="1.97769">
        <ele>491.9</ele>
        <time>2014-02-15T12:32:28.000Z</time>
      </trkpt>
      <trkpt lat="42.98231" lon="1.97757">
        <ele>492.8</ele>
        <time>2014-02-15T12:32:40.000Z</time>
      </trkpt>
      <trkpt lat="42.9823" lon="1.97758">
        <ele>492.8</ele>
        <time>2014-02-15T12:32:41.000Z</time>
      </trkpt>
      <trkpt lat="42.9823" lon="1.97758">
        <ele>486.1</ele>
        <time>2014-02-15T12:32:48.000Z</time>
      </trkpt>
      <trkpt lat="42.9823" lon="1.97758">
        <ele>490.4</ele>
        <time>2014-02-15T12:32:49.000Z</time>
      </trkpt>
      <trkpt lat="42.9823" lon="1.97758">
        <ele>488.5</ele>
        <time>2014-02-15T12:33:08.000Z</time>
      </trkpt>
      <trkpt lat="42.98227" lon="1.97758">
        <ele>492.3</ele>
        <time>2014-02-15T12:34:30.000Z</time>
      </trkpt>
      <trkpt lat="42.98227" lon="1.97758">
        <ele>491.9</ele>
        <time>2014-02-15T12:34:31.000Z</time>
      </trkpt>
      <trkpt lat="42.98227" lon="1.97758">
        <ele>491.9</ele>
        <time>2014-02-15T12:35:46.000Z</time>
      </trkpt>
      <trkpt lat="42.98215" lon="1.9779">
        <ele>491.4</ele>
        <time>2014-02-15T12:35:57.000Z</time>
      </trkpt>
      <trkpt lat="42.98199" lon="1.97812">
        <ele>488.5</ele>
        <time>2014-02-15T12:36:03.000Z</time>
      </trkpt>
      <trkpt lat="42.98178" lon="1.9783">
        <ele>486.1</ele>
        <time>2014-02-15T12:36:11.000Z</time>
      </trkpt>
      <trkpt lat="42.98173" lon="1.97833">
        <ele>485.6</ele>
        <time>2014-02-15T12:36:12.000Z</time>
      </trkpt>
      <trkpt lat="42.98163" lon="1.97837">
        <ele>486.1</ele>
        <time>2014-02-15T12:36:14.000Z</time>
      </trkpt>
      <trkpt lat="42.98157" lon="1.97838">
        <ele>484.6</ele>
        <time>2014-02-15T12:36:15.000Z</time>
      </trkpt>
      <trkpt lat="42.9815" lon="1.97838">
        <ele>484.6</ele>
        <time>2014-02-15T12:36:16.000Z</time>
      </trkpt>
      <trkpt lat="42.98143" lon="1.97836">
        <ele>485.1</ele>
        <time>2014-02-15T12:36:17.000Z</time>
      </trkpt>
      <trkpt lat="42.98137" lon="1.97834">
        <ele>484.6</ele>
        <time>2014-02-15T12:36:18.000Z</time>
      </trkpt>
      <trkpt lat="42.98131" lon="1.97831">
        <ele>483.2</ele>
        <time>2014-02-15T12:36:19.000Z</time>
      </trkpt>
      <trkpt lat="42.98125" lon="1.97828">
        <ele>483.7</ele>
        <time>2014-02-15T12:36:20.000Z</time>
      </trkpt>
      <trkpt lat="42.9811" lon="1.97821">
        <ele>481.3</ele>
        <time>2014-02-15T12:36:23.000Z</time>
      </trkpt>
      <trkpt lat="42.981" lon="1.97816">
        <ele>480.3</ele>
        <time>2014-02-15T12:36:25.000Z</time>
      </trkpt>
      <trkpt lat="42.98095" lon="1.97814">
        <ele>480.3</ele>
        <time>2014-02-15T12:36:26.000Z</time>
      </trkpt>
      <trkpt lat="42.98066" lon="1.97808">
        <ele>476.5</ele>
        <time>2014-02-15T12:36:32.000Z</time>
      </trkpt>
      <trkpt lat="42.98062" lon="1.97809">
        <ele>477</ele>
        <time>2014-02-15T12:36:33.000Z</time>
      </trkpt>
      <trkpt lat="42.9804" lon="1.97811">
        <ele>473.1</ele>
        <time>2014-02-15T12:36:38.000Z</time>
      </trkpt>
      <trkpt lat="42.98036" lon="1.97812">
        <ele>473.6</ele>
        <time>2014-02-15T12:36:39.000Z</time>
      </trkpt>
      <trkpt lat="42.98002" lon="1.97821">
        <ele>468.8</ele>
        <time>2014-02-15T12:36:48.000Z</time>
      </trkpt>
      <trkpt lat="42.97989" lon="1.97825">
        <ele>468.8</ele>
        <time>2014-02-15T12:36:51.000Z</time>
      </trkpt>
      <trkpt lat="42.97948" lon="1.97849">
        <ele>464.9</ele>
        <time>2014-02-15T12:37:00.000Z</time>
      </trkpt>
      <trkpt lat="42.97938" lon="1.97855">
        <ele>463.5</ele>
        <time>2014-02-15T12:37:02.000Z</time>
      </trkpt>
      <trkpt lat="42.97934" lon="1.97858">
        <ele>464.9</ele>
        <time>2014-02-15T12:37:03.000Z</time>
      </trkpt>
      <trkpt lat="42.97929" lon="1.97862">
        <ele>463</ele>
        <time>2014-02-15T12:37:04.000Z</time>
      </trkpt>
      <trkpt lat="42.97921" lon="1.97868">
        <ele>463</ele>
        <time>2014-02-15T12:37:06.000Z</time>
      </trkpt>
      <trkpt lat="42.97917" lon="1.97872">
        <ele>462.5</ele>
        <time>2014-02-15T12:37:07.000Z</time>
      </trkpt>
      <trkpt lat="42.97912" lon="1.97875">
        <ele>462.1</ele>
        <time>2014-02-15T12:37:08.000Z</time>
      </trkpt>
      <trkpt lat="42.97908" lon="1.97877">
        <ele>462.1</ele>
        <time>2014-02-15T12:37:09.000Z</time>
      </trkpt>
      <trkpt lat="42.97903" lon="1.97875">
        <ele>461.1</ele>
        <time>2014-02-15T12:37:10.000Z</time>
      </trkpt>
      <trkpt lat="42.979" lon="1.9787">
        <ele>460.1</ele>
        <time>2014-02-15T12:37:11.000Z</time>
      </trkpt>
      <trkpt lat="42.979" lon="1.97862">
        <ele>460.6</ele>
        <time>2014-02-15T12:37:12.000Z</time>
      </trkpt>
      <trkpt lat="42.97902" lon="1.97854">
        <ele>458.7</ele>
        <time>2014-02-15T12:37:13.000Z</time>
      </trkpt>
      <trkpt lat="42.97904" lon="1.97845">
        <ele>458.7</ele>
        <time>2014-02-15T12:37:14.000Z</time>
      </trkpt>
      <trkpt lat="42.97911" lon="1.97827">
        <ele>456.8</ele>
        <time>2014-02-15T12:37:16.000Z</time>
      </trkpt>
      <trkpt lat="42.97918" lon="1.9781">
        <ele>457.2</ele>
        <time>2014-02-15T12:37:18.000Z</time>
      </trkpt>
      <trkpt lat="42.97921" lon="1.97801">
        <ele>456.3</ele>
        <time>2014-02-15T12:37:19.000Z</time>
      </trkpt>
      <trkpt lat="42.97917" lon="1.97783">
        <ele>450.5</ele>
        <time>2014-02-15T12:37:41.000Z</time>
      </trkpt>
      <trkpt lat="42.97916" lon="1.97782">
        <ele>450</ele>
        <time>2014-02-15T12:37:42.000Z</time>
      </trkpt>
      <trkpt lat="42.97911" lon="1.97779">
        <ele>448.6</ele>
        <time>2014-02-15T12:37:45.000Z</time>
      </trkpt>
      <trkpt lat="42.9791" lon="1.97777">
        <ele>449.1</ele>
        <time>2014-02-15T12:37:46.000Z</time>
      </trkpt>
      <trkpt lat="42.97908" lon="1.97775">
        <ele>447.2</ele>
        <time>2014-02-15T12:37:47.000Z</time>
      </trkpt>
      <trkpt lat="42.97903" lon="1.97771">
        <ele>446.2</ele>
        <time>2014-02-15T12:37:49.000Z</time>
      </trkpt>
      <trkpt lat="42.97899" lon="1.97764">
        <ele>443.8</ele>
        <time>2014-02-15T12:37:53.000Z</time>
      </trkpt>
      <trkpt lat="42.97899" lon="1.97763">
        <ele>443.8</ele>
        <time>2014-02-15T12:37:54.000Z</time>
      </trkpt>
      <trkpt lat="42.97898" lon="1.97758">
        <ele>443.8</ele>
        <time>2014-02-15T12:37:58.000Z</time>
      </trkpt>
      <trkpt lat="42.97895" lon="1.97755">
        <ele>443.3</ele>
        <time>2014-02-15T12:38:00.000Z</time>
      </trkpt>
      <trkpt lat="42.97893" lon="1.97753">
        <ele>442.3</ele>
        <time>2014-02-15T12:38:01.000Z</time>
      </trkpt>
      <trkpt lat="42.97891" lon="1.97752">
        <ele>442.8</ele>
        <time>2014-02-15T12:38:02.000Z</time>
      </trkpt>
      <trkpt lat="42.97888" lon="1.97752">
        <ele>441.9</ele>
        <time>2014-02-15T12:38:03.000Z</time>
      </trkpt>
      <trkpt lat="42.97886" lon="1.97752">
        <ele>441.9</ele>
        <time>2014-02-15T12:38:04.000Z</time>
      </trkpt>
      <trkpt lat="42.97885" lon="1.97752">
        <ele>441.4</ele>
        <time>2014-02-15T12:38:05.000Z</time>
      </trkpt>
      <trkpt lat="42.97883" lon="1.9775">
        <ele>440.9</ele>
        <time>2014-02-15T12:38:06.000Z</time>
      </trkpt>
      <trkpt lat="42.97881" lon="1.97748">
        <ele>438.5</ele>
        <time>2014-02-15T12:38:07.000Z</time>
      </trkpt>
      <trkpt lat="42.97879" lon="1.97746">
        <ele>439</ele>
        <time>2014-02-15T12:38:08.000Z</time>
      </trkpt>
      <trkpt lat="42.97876" lon="1.97744">
        <ele>439.5</ele>
        <time>2014-02-15T12:38:09.000Z</time>
      </trkpt>
      <trkpt lat="42.97874" lon="1.97743">
        <ele>438.5</ele>
        <time>2014-02-15T12:38:10.000Z</time>
      </trkpt>
      <trkpt lat="42.97871" lon="1.97741">
        <ele>438</ele>
        <time>2014-02-15T12:38:11.000Z</time>
      </trkpt>
      <trkpt lat="42.9787" lon="1.9774">
        <ele>438</ele>
        <time>2014-02-15T12:38:12.000Z</time>
      </trkpt>
      <trkpt lat="42.97868" lon="1.97738">
        <ele>437.1</ele>
        <time>2014-02-15T12:38:13.000Z</time>
      </trkpt>
      <trkpt lat="42.97867" lon="1.97736">
        <ele>436.1</ele>
        <time>2014-02-15T12:38:14.000Z</time>
      </trkpt>
      <trkpt lat="42.97865" lon="1.97733">
        <ele>436.1</ele>
        <time>2014-02-15T12:38:15.000Z</time>
      </trkpt>
      <trkpt lat="42.97863" lon="1.9773">
        <ele>437.1</ele>
        <time>2014-02-15T12:38:16.000Z</time>
      </trkpt>
      <trkpt lat="42.97861" lon="1.97728">
        <ele>435.1</ele>
        <time>2014-02-15T12:38:17.000Z</time>
      </trkpt>
      <trkpt lat="42.97857" lon="1.97722">
        <ele>434.2</ele>
        <time>2014-02-15T12:38:19.000Z</time>
      </trkpt>
      <trkpt lat="42.97846" lon="1.97712">
        <ele>431.8</ele>
        <time>2014-02-15T12:38:25.000Z</time>
      </trkpt>
      <trkpt lat="42.97842" lon="1.97712">
        <ele>430.8</ele>
        <time>2014-02-15T12:38:26.000Z</time>
      </trkpt>
      <trkpt lat="42.97838" lon="1.97712">
        <ele>431.3</ele>
        <time>2014-02-15T12:38:27.000Z</time>
      </trkpt>
      <trkpt lat="42.97833" lon="1.97711">
        <ele>430.3</ele>
        <time>2014-02-15T12:38:28.000Z</time>
      </trkpt>
      <trkpt lat="42.97828" lon="1.97708">
        <ele>430.3</ele>
        <time>2014-02-15T12:38:29.000Z</time>
      </trkpt>
      <trkpt lat="42.97824" lon="1.97704">
        <ele>430.3</ele>
        <time>2014-02-15T12:38:30.000Z</time>
      </trkpt>
      <trkpt lat="42.9782" lon="1.97697">
        <ele>430.8</ele>
        <time>2014-02-15T12:38:31.000Z</time>
      </trkpt>
      <trkpt lat="42.97815" lon="1.97691">
        <ele>429.4</ele>
        <time>2014-02-15T12:38:32.000Z</time>
      </trkpt>
      <trkpt lat="42.97809" lon="1.97687">
        <ele>429.4</ele>
        <time>2014-02-15T12:38:33.000Z</time>
      </trkpt>
      <trkpt lat="42.97802" lon="1.97685">
        <ele>429.4</ele>
        <time>2014-02-15T12:38:34.000Z</time>
      </trkpt>
      <trkpt lat="42.97794" lon="1.97686">
        <ele>428.4</ele>
        <time>2014-02-15T12:38:35.000Z</time>
      </trkpt>
      <trkpt lat="42.97787" lon="1.9769">
        <ele>427</ele>
        <time>2014-02-15T12:38:36.000Z</time>
      </trkpt>
      <trkpt lat="42.97779" lon="1.97694">
        <ele>427</ele>
        <time>2014-02-15T12:38:37.000Z</time>
      </trkpt>
      <trkpt lat="42.97762" lon="1.97698">
        <ele>425.5</ele>
        <time>2014-02-15T12:38:39.000Z</time>
      </trkpt>
      <trkpt lat="42.97752" lon="1.97698">
        <ele>424.6</ele>
        <time>2014-02-15T12:38:40.000Z</time>
      </trkpt>
      <trkpt lat="42.97743" lon="1.97696">
        <ele>424.1</ele>
        <time>2014-02-15T12:38:41.000Z</time>
      </trkpt>
      <trkpt lat="42.97734" lon="1.97694">
        <ele>423.1</ele>
        <time>2014-02-15T12:38:42.000Z</time>
      </trkpt>
      <trkpt lat="42.97725" lon="1.97691">
        <ele>424.1</ele>
        <time>2014-02-15T12:38:43.000Z</time>
      </trkpt>
      <trkpt lat="42.97669" lon="1.97679">
        <ele>422.6</ele>
        <time>2014-02-15T12:38:50.000Z</time>
      </trkpt>
      <trkpt lat="42.97614" lon="1.97665">
        <ele>423.1</ele>
        <time>2014-02-15T12:39:01.000Z</time>
      </trkpt>
      <trkpt lat="42.97605" lon="1.97664">
        <ele>423.1</ele>
        <time>2014-02-15T12:39:07.000Z</time>
      </trkpt>
      <trkpt lat="42.976" lon="1.97667">
        <ele>424.6</ele>
        <time>2014-02-15T12:39:13.000Z</time>
      </trkpt>
      <trkpt lat="42.97601" lon="1.97668">
        <ele>423.6</ele>
        <time>2014-02-15T12:39:14.000Z</time>
      </trkpt>
      <trkpt lat="42.97602" lon="1.97669">
        <ele>423.1</ele>
        <time>2014-02-15T12:39:15.000Z</time>
      </trkpt>
      <trkpt lat="42.97603" lon="1.97669">
        <ele>424.1</ele>
        <time>2014-02-15T12:39:16.000Z</time>
      </trkpt>
      <trkpt lat="42.97604" lon="1.97667">
        <ele>424.1</ele>
        <time>2014-02-15T12:39:17.000Z</time>
      </trkpt>
      <trkpt lat="42.97604" lon="1.97665">
        <ele>424.1</ele>
        <time>2014-02-15T12:39:18.000Z</time>
      </trkpt>
      <trkpt lat="42.97604" lon="1.97664">
        <ele>424.6</ele>
        <time>2014-02-15T12:39:19.000Z</time>
      </trkpt>
      <trkpt lat="42.97603" lon="1.97663">
        <ele>422.6</ele>
        <time>2014-02-15T12:39:20.000Z</time>
      </trkpt>
      <trkpt lat="42.97601" lon="1.97665">
        <ele>423.6</ele>
        <time>2014-02-15T12:39:21.000Z</time>
      </trkpt>
      <trkpt lat="42.976" lon="1.97667">
        <ele>424.1</ele>
        <time>2014-02-15T12:39:22.000Z</time>
      </trkpt>
      <trkpt lat="42.97599" lon="1.9767">
        <ele>423.6</ele>
        <time>2014-02-15T12:39:23.000Z</time>
      </trkpt>
      <trkpt lat="42.97598" lon="1.97672">
        <ele>423.6</ele>
        <time>2014-02-15T12:39:24.000Z</time>
      </trkpt>
      <trkpt lat="42.97596" lon="1.97675">
        <ele>423.1</ele>
        <time>2014-02-15T12:39:25.000Z</time>
      </trkpt>
      <trkpt lat="42.97594" lon="1.97677">
        <ele>423.6</ele>
        <time>2014-02-15T12:39:26.000Z</time>
      </trkpt>
      <trkpt lat="42.97592" lon="1.97679">
        <ele>424.6</ele>
        <time>2014-02-15T12:39:27.000Z</time>
      </trkpt>
      <trkpt lat="42.9759" lon="1.97681">
        <ele>425</ele>
        <time>2014-02-15T12:39:28.000Z</time>
      </trkpt>
      <trkpt lat="42.97587" lon="1.97683">
        <ele>425</ele>
        <time>2014-02-15T12:39:29.000Z</time>
      </trkpt>
      <trkpt lat="42.97564" lon="1.97709">
        <ele>424.6</ele>
        <time>2014-02-15T12:39:37.000Z</time>
      </trkpt>
      <trkpt lat="42.97563" lon="1.97715">
        <ele>423.6</ele>
        <time>2014-02-15T12:39:38.000Z</time>
      </trkpt>
      <trkpt lat="42.97562" lon="1.9772">
        <ele>424.1</ele>
        <time>2014-02-15T12:39:39.000Z</time>
      </trkpt>
      <trkpt lat="42.97562" lon="1.97727">
        <ele>424.1</ele>
        <time>2014-02-15T12:39:40.000Z</time>
      </trkpt>
      <trkpt lat="42.97563" lon="1.97733">
        <ele>423.1</ele>
        <time>2014-02-15T12:39:41.000Z</time>
      </trkpt>
      <trkpt lat="42.97564" lon="1.97752">
        <ele>423.6</ele>
        <time>2014-02-15T12:39:44.000Z</time>
      </trkpt>
      <trkpt lat="42.97562" lon="1.97759">
        <ele>425</ele>
        <time>2014-02-15T12:39:45.000Z</time>
      </trkpt>
      <trkpt lat="42.9756" lon="1.97765">
        <ele>423.1</ele>
        <time>2014-02-15T12:39:46.000Z</time>
      </trkpt>
      <trkpt lat="42.97557" lon="1.9777">
        <ele>424.1</ele>
        <time>2014-02-15T12:39:47.000Z</time>
      </trkpt>
      <trkpt lat="42.97553" lon="1.97775">
        <ele>424.6</ele>
        <time>2014-02-15T12:39:48.000Z</time>
      </trkpt>
      <trkpt lat="42.97548" lon="1.97778">
        <ele>424.6</ele>
        <time>2014-02-15T12:39:49.000Z</time>
      </trkpt>
      <trkpt lat="42.97544" lon="1.9778">
        <ele>424.1</ele>
        <time>2014-02-15T12:39:50.000Z</time>
      </trkpt>
      <trkpt lat="42.9754" lon="1.97782">
        <ele>424.1</ele>
        <time>2014-02-15T12:39:51.000Z</time>
      </trkpt>
      <trkpt lat="42.97536" lon="1.97783">
        <ele>422.2</ele>
        <time>2014-02-15T12:39:52.000Z</time>
      </trkpt>
      <trkpt lat="42.97531" lon="1.97782">
        <ele>423.6</ele>
        <time>2014-02-15T12:39:53.000Z</time>
      </trkpt>
      <trkpt lat="42.97527" lon="1.97781">
        <ele>423.6</ele>
        <time>2014-02-15T12:39:54.000Z</time>
      </trkpt>
      <trkpt lat="42.97504" lon="1.97774">
        <ele>423.1</ele>
        <time>2014-02-15T12:39:59.000Z</time>
      </trkpt>
      <trkpt lat="42.9749" lon="1.97771">
        <ele>424.1</ele>
        <time>2014-02-15T12:40:02.000Z</time>
      </trkpt>
      <trkpt lat="42.97482" lon="1.9777">
        <ele>424.6</ele>
        <time>2014-02-15T12:40:04.000Z</time>
      </trkpt>
      <trkpt lat="42.97478" lon="1.9777">
        <ele>424.1</ele>
        <time>2014-02-15T12:40:05.000Z</time>
      </trkpt>
      <trkpt lat="42.97473" lon="1.9777">
        <ele>424.1</ele>
        <time>2014-02-15T12:40:06.000Z</time>
      </trkpt>
      <trkpt lat="42.97462" lon="1.97769">
        <ele>423.1</ele>
        <time>2014-02-15T12:40:08.000Z</time>
      </trkpt>
      <trkpt lat="42.97456" lon="1.9777">
        <ele>423.6</ele>
        <time>2014-02-15T12:40:09.000Z</time>
      </trkpt>
      <trkpt lat="42.97436" lon="1.97774">
        <ele>421.7</ele>
        <time>2014-02-15T12:40:12.000Z</time>
      </trkpt>
      <trkpt lat="42.97429" lon="1.97777">
        <ele>421.2</ele>
        <time>2014-02-15T12:40:13.000Z</time>
      </trkpt>
      <trkpt lat="42.97422" lon="1.97781">
        <ele>420.2</ele>
        <time>2014-02-15T12:40:14.000Z</time>
      </trkpt>
      <trkpt lat="42.97369" lon="1.97815">
        <ele>416.9</ele>
        <time>2014-02-15T12:40:21.000Z</time>
      </trkpt>
      <trkpt lat="42.9736" lon="1.97818">
        <ele>416.9</ele>
        <time>2014-02-15T12:40:22.000Z</time>
      </trkpt>
      <trkpt lat="42.97351" lon="1.97819">
        <ele>417.8</ele>
        <time>2014-02-15T12:40:23.000Z</time>
      </trkpt>
      <trkpt lat="42.97343" lon="1.97817">
        <ele>417.8</ele>
        <time>2014-02-15T12:40:24.000Z</time>
      </trkpt>
      <trkpt lat="42.97334" lon="1.97815">
        <ele>418.3</ele>
        <time>2014-02-15T12:40:25.000Z</time>
      </trkpt>
      <trkpt lat="42.97326" lon="1.97812">
        <ele>417.8</ele>
        <time>2014-02-15T12:40:26.000Z</time>
      </trkpt>
      <trkpt lat="42.97304" lon="1.97802">
        <ele>416.4</ele>
        <time>2014-02-15T12:40:29.000Z</time>
      </trkpt>
      <trkpt lat="42.97297" lon="1.97801">
        <ele>416.4</ele>
        <time>2014-02-15T12:40:30.000Z</time>
      </trkpt>
      <trkpt lat="42.97289" lon="1.97804">
        <ele>415</ele>
        <time>2014-02-15T12:40:31.000Z</time>
      </trkpt>
      <trkpt lat="42.97283" lon="1.97809">
        <ele>414.5</ele>
        <time>2014-02-15T12:40:32.000Z</time>
      </trkpt>
      <trkpt lat="42.97278" lon="1.97816">
        <ele>415.4</ele>
        <time>2014-02-15T12:40:33.000Z</time>
      </trkpt>
      <trkpt lat="42.97273" lon="1.97823">
        <ele>415.9</ele>
        <time>2014-02-15T12:40:34.000Z</time>
      </trkpt>
      <trkpt lat="42.97268" lon="1.9783">
        <ele>415.9</ele>
        <time>2014-02-15T12:40:35.000Z</time>
      </trkpt>
      <trkpt lat="42.97261" lon="1.97834">
        <ele>416.4</ele>
        <time>2014-02-15T12:40:36.000Z</time>
      </trkpt>
      <trkpt lat="42.97261" lon="1.97829">
        <ele>417.8</ele>
        <time>2013-11-16T13:31:32.000Z</time>
      </trkpt>
      <trkpt lat="42.97258" lon="1.97827">
        <ele>417.8</ele>
        <time>2013-11-16T13:31:33.000Z</time>
      </trkpt>
      <trkpt lat="42.97254" lon="1.97825">
        <ele>416.9</ele>
        <time>2013-11-16T13:31:34.000Z</time>
      </trkpt>
      <trkpt lat="42.97205" lon="1.97789">
        <ele>419.8</ele>
        <time>2013-11-16T13:31:45.000Z</time>
      </trkpt>
      <trkpt lat="42.97201" lon="1.97787">
        <ele>419.3</ele>
        <time>2013-11-16T13:31:46.000Z</time>
      </trkpt>
      <trkpt lat="42.97199" lon="1.97784">
        <ele>420.2</ele>
        <time>2013-11-16T13:31:47.000Z</time>
      </trkpt>
      <trkpt lat="42.97198" lon="1.9778">
        <ele>419.8</ele>
        <time>2013-11-16T13:31:48.000Z</time>
      </trkpt>
      <trkpt lat="42.97198" lon="1.97777">
        <ele>420.2</ele>
        <time>2013-11-16T13:31:49.000Z</time>
      </trkpt>
      <trkpt lat="42.97196" lon="1.97774">
        <ele>420.2</ele>
        <time>2013-11-16T13:31:50.000Z</time>
      </trkpt>
      <trkpt lat="42.97194" lon="1.97772">
        <ele>419.8</ele>
        <time>2013-11-16T13:31:51.000Z</time>
      </trkpt>
      <trkpt lat="42.97192" lon="1.9777">
        <ele>420.7</ele>
        <time>2013-11-16T13:31:52.000Z</time>
      </trkpt>
      <trkpt lat="42.97174" lon="1.9775">
        <ele>423.6</ele>
        <time>2013-11-16T13:31:58.000Z</time>
      </trkpt>
      <trkpt lat="42.97173" lon="1.97744">
        <ele>423.1</ele>
        <time>2013-11-16T13:31:59.000Z</time>
      </trkpt>
      <trkpt lat="42.97172" lon="1.97723">
        <ele>423.6</ele>
        <time>2013-11-16T13:32:02.000Z</time>
      </trkpt>
      <trkpt lat="42.97174" lon="1.97715">
        <ele>424.6</ele>
        <time>2013-11-16T13:32:03.000Z</time>
      </trkpt>
      <trkpt lat="42.97177" lon="1.97708">
        <ele>423.1</ele>
        <time>2013-11-16T13:32:04.000Z</time>
      </trkpt>
      <trkpt lat="42.97182" lon="1.97702">
        <ele>422.2</ele>
        <time>2013-11-16T13:32:05.000Z</time>
      </trkpt>
      <trkpt lat="42.97186" lon="1.97696">
        <ele>420.7</ele>
        <time>2013-11-16T13:32:06.000Z</time>
      </trkpt>
      <trkpt lat="42.97191" lon="1.97689">
        <ele>420.7</ele>
        <time>2013-11-16T13:32:07.000Z</time>
      </trkpt>
      <trkpt lat="42.97194" lon="1.97681">
        <ele>420.7</ele>
        <time>2013-11-16T13:32:08.000Z</time>
      </trkpt>
      <trkpt lat="42.97195" lon="1.97673">
        <ele>420.2</ele>
        <time>2013-11-16T13:32:09.000Z</time>
      </trkpt>
      <trkpt lat="42.97195" lon="1.97665">
        <ele>419.8</ele>
        <time>2013-11-16T13:32:10.000Z</time>
      </trkpt>
      <trkpt lat="42.97192" lon="1.97657">
        <ele>419.8</ele>
        <time>2013-11-16T13:32:11.000Z</time>
      </trkpt>
      <trkpt lat="42.97188" lon="1.97652">
        <ele>419.8</ele>
        <time>2013-11-16T13:32:12.000Z</time>
      </trkpt>
      <trkpt lat="42.97182" lon="1.97648">
        <ele>419.3</ele>
        <time>2013-11-16T13:32:13.000Z</time>
      </trkpt>
      <trkpt lat="42.97176" lon="1.97644">
        <ele>418.3</ele>
        <time>2013-11-16T13:32:14.000Z</time>
      </trkpt>
      <trkpt lat="42.97169" lon="1.97642">
        <ele>417.4</ele>
        <time>2013-11-16T13:32:15.000Z</time>
      </trkpt>
      <trkpt lat="42.97162" lon="1.9764">
        <ele>416.9</ele>
        <time>2013-11-16T13:32:16.000Z</time>
      </trkpt>
      <trkpt lat="42.97156" lon="1.97637">
        <ele>415.9</ele>
        <time>2013-11-16T13:32:17.000Z</time>
      </trkpt>
      <trkpt lat="42.97151" lon="1.97633">
        <ele>415</ele>
        <time>2013-11-16T13:32:18.000Z</time>
      </trkpt>
      <trkpt lat="42.97148" lon="1.97626">
        <ele>413.5</ele>
        <time>2013-11-16T13:32:19.000Z</time>
      </trkpt>
      <trkpt lat="42.97146" lon="1.97619">
        <ele>414</ele>
        <time>2013-11-16T13:32:20.000Z</time>
      </trkpt>
      <trkpt lat="42.97145" lon="1.9761">
        <ele>413.5</ele>
        <time>2013-11-16T13:32:21.000Z</time>
      </trkpt>
      <trkpt lat="42.97145" lon="1.976">
        <ele>413</ele>
        <time>2013-11-16T13:32:22.000Z</time>
      </trkpt>
      <trkpt lat="42.97145" lon="1.9758">
        <ele>410.6</ele>
        <time>2013-11-16T13:32:24.000Z</time>
      </trkpt>
      <trkpt lat="42.97144" lon="1.9757">
        <ele>409.7</ele>
        <time>2013-11-16T13:32:25.000Z</time>
      </trkpt>
      <trkpt lat="42.97141" lon="1.9756">
        <ele>408.7</ele>
        <time>2013-11-16T13:32:26.000Z</time>
      </trkpt>
      <trkpt lat="42.97136" lon="1.97549">
        <ele>407.3</ele>
        <time>2013-11-16T13:32:27.000Z</time>
      </trkpt>
      <trkpt lat="42.9713" lon="1.9754">
        <ele>406.8</ele>
        <time>2013-11-16T13:32:28.000Z</time>
      </trkpt>
      <trkpt lat="42.97124" lon="1.9753">
        <ele>406.8</ele>
        <time>2013-11-16T13:32:29.000Z</time>
      </trkpt>
      <trkpt lat="42.97057" lon="1.97436">
        <ele>405.3</ele>
        <time>2013-11-16T13:32:41.000Z</time>
      </trkpt>
      <trkpt lat="42.97048" lon="1.9742">
        <ele>405.3</ele>
        <time>2013-11-16T13:32:43.000Z</time>
      </trkpt>
      <trkpt lat="42.97045" lon="1.97411">
        <ele>406.8</ele>
        <time>2013-11-16T13:32:44.000Z</time>
      </trkpt>
      <trkpt lat="42.97043" lon="1.97402">
        <ele>405.8</ele>
        <time>2013-11-16T13:32:45.000Z</time>
      </trkpt>
      <trkpt lat="42.97044" lon="1.97394">
        <ele>405.3</ele>
        <time>2013-11-16T13:32:46.000Z</time>
      </trkpt>
      <trkpt lat="42.97047" lon="1.97387">
        <ele>407.3</ele>
        <time>2013-11-16T13:32:47.000Z</time>
      </trkpt>
      <trkpt lat="42.9705" lon="1.97382">
        <ele>406.8</ele>
        <time>2013-11-16T13:32:48.000Z</time>
      </trkpt>
      <trkpt lat="42.97053" lon="1.97379">
        <ele>406.8</ele>
        <time>2013-11-16T13:32:49.000Z</time>
      </trkpt>
      <trkpt lat="42.9706" lon="1.97361">
        <ele>406.3</ele>
        <time>2013-11-16T13:32:53.000Z</time>
      </trkpt>
      <trkpt lat="42.97062" lon="1.97355">
        <ele>407.7</ele>
        <time>2013-11-16T13:32:54.000Z</time>
      </trkpt>
      <trkpt lat="42.97064" lon="1.9735">
        <ele>407.7</ele>
        <time>2013-11-16T13:32:55.000Z</time>
      </trkpt>
      <trkpt lat="42.97085" lon="1.97297">
        <ele>409.7</ele>
        <time>2013-11-16T13:33:07.000Z</time>
      </trkpt>
      <trkpt lat="42.9709" lon="1.97286">
        <ele>409.2</ele>
        <time>2013-11-16T13:33:09.000Z</time>
      </trkpt>
      <trkpt lat="42.97108" lon="1.97227">
        <ele>411.6</ele>
        <time>2013-11-16T13:33:18.000Z</time>
      </trkpt>
      <trkpt lat="42.9712" lon="1.97186">
        <ele>411.6</ele>
        <time>2013-11-16T13:33:24.000Z</time>
      </trkpt>
      <trkpt lat="42.97122" lon="1.97172">
        <ele>413</ele>
        <time>2013-11-16T13:33:26.000Z</time>
      </trkpt>
      <trkpt lat="42.97124" lon="1.97144">
        <ele>412.5</ele>
        <time>2013-11-16T13:33:30.000Z</time>
      </trkpt>
      <trkpt lat="42.9712" lon="1.97123">
        <ele>413.5</ele>
        <time>2013-11-16T13:33:33.000Z</time>
      </trkpt>
      <trkpt lat="42.97116" lon="1.97117">
        <ele>412.5</ele>
        <time>2013-11-16T13:33:34.000Z</time>
      </trkpt>
      <trkpt lat="42.97112" lon="1.97112">
        <ele>412.5</ele>
        <time>2013-11-16T13:33:35.000Z</time>
      </trkpt>
      <trkpt lat="42.97106" lon="1.97108">
        <ele>412.5</ele>
        <time>2013-11-16T13:33:36.000Z</time>
      </trkpt>
      <trkpt lat="42.971" lon="1.97104">
        <ele>411.1</ele>
        <time>2013-11-16T13:33:37.000Z</time>
      </trkpt>
      <trkpt lat="42.97094" lon="1.97102">
        <ele>410.6</ele>
        <time>2013-11-16T13:33:38.000Z</time>
      </trkpt>
      <trkpt lat="42.97088" lon="1.97101">
        <ele>410.1</ele>
        <time>2013-11-16T13:33:39.000Z</time>
      </trkpt>
      <trkpt lat="42.97082" lon="1.97101">
        <ele>410.1</ele>
        <time>2013-11-16T13:33:40.000Z</time>
      </trkpt>
      <trkpt lat="42.97075" lon="1.97099">
        <ele>409.2</ele>
        <time>2013-11-16T13:33:41.000Z</time>
      </trkpt>
      <trkpt lat="42.97067" lon="1.97097">
        <ele>408.2</ele>
        <time>2013-11-16T13:33:42.000Z</time>
      </trkpt>
      <trkpt lat="42.9706" lon="1.97094">
        <ele>407.7</ele>
        <time>2013-11-16T13:33:43.000Z</time>
      </trkpt>
      <trkpt lat="42.97051" lon="1.97092">
        <ele>407.7</ele>
        <time>2013-11-16T13:33:44.000Z</time>
      </trkpt>
      <trkpt lat="42.97043" lon="1.97091">
        <ele>407.3</ele>
        <time>2013-11-16T13:33:45.000Z</time>
      </trkpt>
      <trkpt lat="42.97035" lon="1.97091">
        <ele>405.3</ele>
        <time>2013-11-16T13:33:46.000Z</time>
      </trkpt>
      <trkpt lat="42.97027" lon="1.97092">
        <ele>405.8</ele>
        <time>2013-11-16T13:33:47.000Z</time>
      </trkpt>
      <trkpt lat="42.97012" lon="1.97092">
        <ele>406.3</ele>
        <time>2013-11-16T13:33:49.000Z</time>
      </trkpt>
      <trkpt lat="42.97005" lon="1.97089">
        <ele>405.3</ele>
        <time>2013-11-16T13:33:50.000Z</time>
      </trkpt>
      <trkpt lat="42.97" lon="1.97082">
        <ele>405.3</ele>
        <time>2013-11-16T13:33:51.000Z</time>
      </trkpt>
      <trkpt lat="42.96995" lon="1.97075">
        <ele>405.3</ele>
        <time>2013-11-16T13:33:52.000Z</time>
      </trkpt>
      <trkpt lat="42.96992" lon="1.97067">
        <ele>405.3</ele>
        <time>2013-11-16T13:33:53.000Z</time>
      </trkpt>
      <trkpt lat="42.9699" lon="1.9706">
        <ele>404.9</ele>
        <time>2013-11-16T13:33:54.000Z</time>
      </trkpt>
      <trkpt lat="42.96975" lon="1.97012">
        <ele>405.8</ele>
        <time>2013-11-16T13:34:01.000Z</time>
      </trkpt>
      <trkpt lat="42.96938" lon="1.96916">
        <ele>404.4</ele>
        <time>2013-11-16T13:34:16.000Z</time>
      </trkpt>
      <trkpt lat="42.96925" lon="1.96879">
        <ele>405.8</ele>
        <time>2013-11-16T13:34:22.000Z</time>
      </trkpt>
      <trkpt lat="42.96923" lon="1.96872">
        <ele>404.9</ele>
        <time>2013-11-16T13:34:23.000Z</time>
      </trkpt>
      <trkpt lat="42.96921" lon="1.96866">
        <ele>404.4</ele>
        <time>2013-11-16T13:34:24.000Z</time>
      </trkpt>
      <trkpt lat="42.96891" lon="1.96791">
        <ele>405.3</ele>
        <time>2013-11-16T13:34:36.000Z</time>
      </trkpt>
      <trkpt lat="42.96889" lon="1.96785">
        <ele>404.9</ele>
        <time>2013-11-16T13:34:37.000Z</time>
      </trkpt>
      <trkpt lat="42.96887" lon="1.9678">
        <ele>406.3</ele>
        <time>2013-11-16T13:34:38.000Z</time>
      </trkpt>
      <trkpt lat="42.96864" lon="1.96715">
        <ele>404.9</ele>
        <time>2013-11-16T13:34:49.000Z</time>
      </trkpt>
      <trkpt lat="42.96862" lon="1.96708">
        <ele>404.9</ele>
        <time>2013-11-16T13:34:50.000Z</time>
      </trkpt>
      <trkpt lat="42.96862" lon="1.96701">
        <ele>405.3</ele>
        <time>2013-11-16T13:34:51.000Z</time>
      </trkpt>
      <trkpt lat="42.96862" lon="1.96688">
        <ele>403.4</ele>
        <time>2013-11-16T13:34:53.000Z</time>
      </trkpt>
      <trkpt lat="42.96866" lon="1.96671">
        <ele>402.9</ele>
        <time>2013-11-16T13:34:57.000Z</time>
      </trkpt>
      <trkpt lat="42.96866" lon="1.96671">
        <ele>403.9</ele>
        <time>2013-11-16T13:35:08.000Z</time>
      </trkpt>
      <trkpt lat="42.96864" lon="1.96673">
        <ele>402.9</ele>
        <time>2013-11-16T13:35:30.000Z</time>
      </trkpt>
      <trkpt lat="42.96864" lon="1.96676">
        <ele>404.4</ele>
        <time>2013-11-16T13:35:31.000Z</time>
      </trkpt>
      <trkpt lat="42.96863" lon="1.96678">
        <ele>404.9</ele>
        <time>2013-11-16T13:35:32.000Z</time>
      </trkpt>
      <trkpt lat="42.96861" lon="1.96701">
        <ele>404.9</ele>
        <time>2013-11-16T13:37:45.000Z</time>
      </trkpt>
      <trkpt lat="42.96861" lon="1.96694">
        <ele>404.4</ele>
        <time>2013-11-16T13:37:46.000Z</time>
      </trkpt>
      <trkpt lat="42.96863" lon="1.96674">
        <ele>403.9</ele>
        <time>2013-11-16T13:37:49.000Z</time>
      </trkpt>
      <trkpt lat="42.96865" lon="1.96669">
        <ele>404.4</ele>
        <time>2013-11-16T13:37:50.000Z</time>
      </trkpt>
      <trkpt lat="42.96867" lon="1.96664">
        <ele>404.4</ele>
        <time>2013-11-16T13:37:51.000Z</time>
      </trkpt>
      <trkpt lat="42.9687" lon="1.96661">
        <ele>402.9</ele>
        <time>2013-11-16T13:37:52.000Z</time>
      </trkpt>
      <trkpt lat="42.96872" lon="1.96658">
        <ele>404.4</ele>
        <time>2013-11-16T13:37:53.000Z</time>
      </trkpt>
      <trkpt lat="42.96874" lon="1.96656">
        <ele>404.4</ele>
        <time>2013-11-16T13:37:54.000Z</time>
      </trkpt>
      <trkpt lat="42.96876" lon="1.96653">
        <ele>404.9</ele>
        <time>2013-11-16T13:37:55.000Z</time>
      </trkpt>
      <trkpt lat="42.96895" lon="1.96626">
        <ele>402.9</ele>
        <time>2013-11-16T13:38:03.000Z</time>
      </trkpt>
      <trkpt lat="42.96902" lon="1.96607">
        <ele>402.9</ele>
        <time>2013-11-16T13:38:07.000Z</time>
      </trkpt>
      <trkpt lat="42.96904" lon="1.96602">
        <ele>402.5</ele>
        <time>2013-11-16T13:38:08.000Z</time>
      </trkpt>
      <trkpt lat="42.96906" lon="1.96561">
        <ele>402</ele>
        <time>2013-11-16T13:38:16.000Z</time>
      </trkpt>
      <trkpt lat="42.96911" lon="1.96527">
        <ele>404.4</ele>
        <time>2013-11-16T13:38:26.000Z</time>
      </trkpt>
      <trkpt lat="42.96919" lon="1.9648">
        <ele>402.5</ele>
        <time>2013-11-16T13:38:38.000Z</time>
      </trkpt>
      <trkpt lat="42.96924" lon="1.9646">
        <ele>401.5</ele>
        <time>2013-11-16T13:38:43.000Z</time>
      </trkpt>
      <trkpt lat="42.96938" lon="1.96441">
        <ele>401.5</ele>
        <time>2013-11-16T13:38:50.000Z</time>
      </trkpt>
      <trkpt lat="42.96959" lon="1.96418">
        <ele>402.9</ele>
        <time>2013-11-16T13:38:59.000Z</time>
      </trkpt>
      <trkpt lat="42.96969" lon="1.96393">
        <ele>402.5</ele>
        <time>2013-11-16T13:39:05.000Z</time>
      </trkpt>
      <trkpt lat="42.96969" lon="1.96372">
        <ele>402.9</ele>
        <time>2013-11-16T13:39:10.000Z</time>
      </trkpt>
      <trkpt lat="42.9697" lon="1.96359">
        <ele>405.3</ele>
        <time>2013-11-16T13:39:14.000Z</time>
      </trkpt>
      <trkpt lat="42.96971" lon="1.96352">
        <ele>404.4</ele>
        <time>2013-11-16T13:39:16.000Z</time>
      </trkpt>
      <trkpt lat="42.96975" lon="1.96335">
        <ele>402</ele>
        <time>2013-11-16T13:39:27.000Z</time>
      </trkpt>
      <trkpt lat="42.96975" lon="1.96335">
        <ele>405.8</ele>
        <time>2013-11-16T13:39:29.000Z</time>
      </trkpt>
      <trkpt lat="42.96975" lon="1.96335">
        <ele>402.5</ele>
        <time>2013-11-16T13:39:40.000Z</time>
      </trkpt>
      <trkpt lat="42.96975" lon="1.96335">
        <ele>405.3</ele>
        <time>2013-11-16T13:39:43.000Z</time>
      </trkpt>
      <trkpt lat="42.96975" lon="1.96335">
        <ele>403.9</ele>
        <time>2013-11-16T13:39:45.000Z</time>
      </trkpt>
      <trkpt lat="42.96975" lon="1.96335">
        <ele>403.4</ele>
        <time>2013-11-16T13:39:46.000Z</time>
      </trkpt>
      <trkpt lat="42.96988" lon="1.96322">
        <ele>402.9</ele>
        <time>2013-11-16T13:39:52.000Z</time>
      </trkpt>
      <trkpt lat="42.96998" lon="1.96297">
        <ele>402.5</ele>
        <time>2013-11-16T13:39:57.000Z</time>
      </trkpt>
      <trkpt lat="42.9702" lon="1.96235">
        <ele>401</ele>
        <time>2013-11-16T13:40:09.000Z</time>
      </trkpt>
      <trkpt lat="42.97033" lon="1.96198">
        <ele>402</ele>
        <time>2013-11-16T13:40:17.000Z</time>
      </trkpt>
      <trkpt lat="42.97034" lon="1.96192">
        <ele>401.5</ele>
        <time>2013-11-16T13:40:18.000Z</time>
      </trkpt>
      <trkpt lat="42.97035" lon="1.96187">
        <ele>402.5</ele>
        <time>2013-11-16T13:40:19.000Z</time>
      </trkpt>
      <trkpt lat="42.97034" lon="1.96181">
        <ele>402</ele>
        <time>2013-11-16T13:40:20.000Z</time>
      </trkpt>
      <trkpt lat="42.97033" lon="1.96177">
        <ele>402.5</ele>
        <time>2013-11-16T13:40:21.000Z</time>
      </trkpt>
      <trkpt lat="42.97032" lon="1.96174">
        <ele>402</ele>
        <time>2013-11-16T13:40:22.000Z</time>
      </trkpt>
      <trkpt lat="42.97032" lon="1.9617">
        <ele>401.5</ele>
        <time>2013-11-16T13:40:23.000Z</time>
      </trkpt>
      <trkpt lat="42.97032" lon="1.96166">
        <ele>403.4</ele>
        <time>2013-11-16T13:40:24.000Z</time>
      </trkpt>
      <trkpt lat="42.97032" lon="1.96162">
        <ele>402</ele>
        <time>2013-11-16T13:40:25.000Z</time>
      </trkpt>
      <trkpt lat="42.97035" lon="1.96156">
        <ele>401.5</ele>
        <time>2013-11-16T13:40:27.000Z</time>
      </trkpt>
      <trkpt lat="42.9706" lon="1.96141">
        <ele>402</ele>
        <time>2013-11-16T13:40:36.000Z</time>
      </trkpt>
      <trkpt lat="42.97062" lon="1.96137">
        <ele>402.5</ele>
        <time>2013-11-16T13:40:37.000Z</time>
      </trkpt>
      <trkpt lat="42.97064" lon="1.96133">
        <ele>402</ele>
        <time>2013-11-16T13:40:38.000Z</time>
      </trkpt>
      <trkpt lat="42.97065" lon="1.96129">
        <ele>402.9</ele>
        <time>2013-11-16T13:40:39.000Z</time>
      </trkpt>
      <trkpt lat="42.97067" lon="1.96125">
        <ele>401.5</ele>
        <time>2013-11-16T13:40:40.000Z</time>
      </trkpt>
      <trkpt lat="42.97068" lon="1.96121">
        <ele>401.5</ele>
        <time>2013-11-16T13:40:41.000Z</time>
      </trkpt>
      <trkpt lat="42.97071" lon="1.96109">
        <ele>400.5</ele>
        <time>2013-11-16T13:40:44.000Z</time>
      </trkpt>
      <trkpt lat="42.97069" lon="1.96091">
        <ele>402</ele>
        <time>2013-11-16T13:40:49.000Z</time>
      </trkpt>
      <trkpt lat="42.9707" lon="1.96088">
        <ele>402</ele>
        <time>2013-11-16T13:40:50.000Z</time>
      </trkpt>
      <trkpt lat="42.97072" lon="1.96082">
        <ele>403.9</ele>
        <time>2013-11-16T13:40:54.000Z</time>
      </trkpt>
      <trkpt lat="42.97073" lon="1.96075">
        <ele>403.4</ele>
        <time>2013-11-16T13:40:59.000Z</time>
      </trkpt>
      <trkpt lat="42.97073" lon="1.96067">
        <ele>402.9</ele>
        <time>2013-11-16T13:41:04.000Z</time>
      </trkpt>
      <trkpt lat="42.97074" lon="1.9606">
        <ele>405.3</ele>
        <time>2013-11-16T13:41:07.000Z</time>
      </trkpt>
      <trkpt lat="42.97074" lon="1.96057">
        <ele>404.9</ele>
        <time>2013-11-16T13:41:08.000Z</time>
      </trkpt>
      <trkpt lat="42.97075" lon="1.96055">
        <ele>404.9</ele>
        <time>2013-11-16T13:41:09.000Z</time>
      </trkpt>
      <trkpt lat="42.97076" lon="1.96053">
        <ele>404.9</ele>
        <time>2013-11-16T13:41:10.000Z</time>
      </trkpt>
      <trkpt lat="42.97076" lon="1.96051">
        <ele>403.9</ele>
        <time>2013-11-16T13:41:11.000Z</time>
      </trkpt>
      <trkpt lat="42.97077" lon="1.96047">
        <ele>404.4</ele>
        <time>2013-11-16T13:41:29.000Z</time>
      </trkpt>
      <trkpt lat="42.97078" lon="1.96047">
        <ele>401</ele>
        <time>2013-11-16T13:42:09.000Z</time>
      </trkpt>
      <trkpt lat="42.97078" lon="1.96047">
        <ele>404.9</ele>
        <time>2013-11-16T13:42:10.000Z</time>
      </trkpt>
      <trkpt lat="42.97081" lon="1.96042">
        <ele>404.4</ele>
        <time>2013-11-16T13:43:15.000Z</time>
      </trkpt>
      <trkpt lat="42.97081" lon="1.96039">
        <ele>402.5</ele>
        <time>2013-11-16T13:43:16.000Z</time>
      </trkpt>
      <trkpt lat="42.97081" lon="1.96037">
        <ele>404.9</ele>
        <time>2013-11-16T13:43:17.000Z</time>
      </trkpt>
      <trkpt lat="42.97081" lon="1.96034">
        <ele>403.4</ele>
        <time>2013-11-16T13:43:18.000Z</time>
      </trkpt>
      <trkpt lat="42.97082" lon="1.96031">
        <ele>403.9</ele>
        <time>2013-11-16T13:43:19.000Z</time>
      </trkpt>
      <trkpt lat="42.97082" lon="1.96027">
        <ele>404.9</ele>
        <time>2013-11-16T13:43:20.000Z</time>
      </trkpt>
      <trkpt lat="42.97083" lon="1.96024">
        <ele>403.9</ele>
        <time>2013-11-16T13:43:21.000Z</time>
      </trkpt>
      <trkpt lat="42.97084" lon="1.9602">
        <ele>402.9</ele>
        <time>2013-11-16T13:43:22.000Z</time>
      </trkpt>
      <trkpt lat="42.97086" lon="1.96017">
        <ele>402.9</ele>
        <time>2013-11-16T13:43:23.000Z</time>
      </trkpt>
      <trkpt lat="42.97087" lon="1.96014">
        <ele>402.9</ele>
        <time>2013-11-16T13:43:24.000Z</time>
      </trkpt>
      <trkpt lat="42.97088" lon="1.9601">
        <ele>401</ele>
        <time>2013-11-16T13:43:25.000Z</time>
      </trkpt>
      <trkpt lat="42.9709" lon="1.96006">
        <ele>403.4</ele>
        <time>2013-11-16T13:43:26.000Z</time>
      </trkpt>
      <trkpt lat="42.97096" lon="1.95999">
        <ele>402</ele>
        <time>2013-11-16T13:43:28.000Z</time>
      </trkpt>
      <trkpt lat="42.97098" lon="1.95995">
        <ele>402.5</ele>
        <time>2013-11-16T13:43:29.000Z</time>
      </trkpt>
      <trkpt lat="42.97101" lon="1.95988">
        <ele>402.9</ele>
        <time>2013-11-16T13:43:30.000Z</time>
      </trkpt>
      <trkpt lat="42.97105" lon="1.95983">
        <ele>402.9</ele>
        <time>2013-11-16T13:43:31.000Z</time>
      </trkpt>
      <trkpt lat="42.97108" lon="1.95979">
        <ele>402</ele>
        <time>2013-11-16T13:43:32.000Z</time>
      </trkpt>
      <trkpt lat="42.97112" lon="1.95976">
        <ele>401.5</ele>
        <time>2013-11-16T13:43:33.000Z</time>
      </trkpt>
      <trkpt lat="42.97131" lon="1.95939">
        <ele>400.5</ele>
        <time>2013-11-16T13:43:42.000Z</time>
      </trkpt>
      <trkpt lat="42.97165" lon="1.95868">
        <ele>402</ele>
        <time>2013-11-16T13:43:56.000Z</time>
      </trkpt>
      <trkpt lat="42.9718" lon="1.95802">
        <ele>401</ele>
        <time>2013-11-16T13:44:09.000Z</time>
      </trkpt>
      <trkpt lat="42.97191" lon="1.95739">
        <ele>403.4</ele>
        <time>2013-11-16T13:44:22.000Z</time>
      </trkpt>
      <trkpt lat="42.97224" lon="1.9569">
        <ele>401.5</ele>
        <time>2013-11-16T13:44:36.000Z</time>
      </trkpt>
      <trkpt lat="42.97224" lon="1.95687">
        <ele>401</ele>
        <time>2013-11-16T13:44:37.000Z</time>
      </trkpt>
      <trkpt lat="42.97223" lon="1.95684">
        <ele>400.5</ele>
        <time>2013-11-16T13:44:38.000Z</time>
      </trkpt>
      <trkpt lat="42.97207" lon="1.95683">
        <ele>401</ele>
        <time>2013-11-16T13:44:44.000Z</time>
      </trkpt>
      <trkpt lat="42.97167" lon="1.95692">
        <ele>402.5</ele>
        <time>2013-11-16T13:44:56.000Z</time>
      </trkpt>
      <trkpt lat="42.97141" lon="1.95704">
        <ele>401</ele>
        <time>2013-11-16T13:45:05.000Z</time>
      </trkpt>
      <trkpt lat="42.97134" lon="1.95698">
        <ele>403.4</ele>
        <time>2013-11-16T13:45:08.000Z</time>
      </trkpt>
      <trkpt lat="42.97133" lon="1.95694">
        <ele>402</ele>
        <time>2013-11-16T13:45:09.000Z</time>
      </trkpt>
      <trkpt lat="42.97108" lon="1.95608">
        <ele>402</ele>
        <time>2013-11-16T13:45:29.000Z</time>
      </trkpt>
      <trkpt lat="42.971" lon="1.95587">
        <ele>401</ele>
        <time>2013-11-16T13:45:36.000Z</time>
      </trkpt>
      <trkpt lat="42.971" lon="1.95584">
        <ele>401.5</ele>
        <time>2013-11-16T13:45:38.000Z</time>
      </trkpt>
      <trkpt lat="42.97105" lon="1.95584">
        <ele>400.1</ele>
        <time>2013-11-16T13:45:50.000Z</time>
      </trkpt>
      <trkpt lat="42.97105" lon="1.95584">
        <ele>400.5</ele>
        <time>2013-11-16T13:45:56.000Z</time>
      </trkpt>
      <trkpt lat="42.97107" lon="1.95584">
        <ele>401</ele>
        <time>2013-11-16T13:45:58.000Z</time>
      </trkpt>
      <trkpt lat="42.97108" lon="1.95586">
        <ele>401</ele>
        <time>2013-11-16T13:46:00.000Z</time>
      </trkpt>
      <trkpt lat="42.97129" lon="1.95585">
        <ele>399.1</ele>
        <time>2013-11-16T13:46:08.000Z</time>
      </trkpt>
      <trkpt lat="42.97144" lon="1.95537">
        <ele>399.6</ele>
        <time>2013-11-16T13:46:19.000Z</time>
      </trkpt>
      <trkpt lat="42.97143" lon="1.95489">
        <ele>399.1</ele>
        <time>2013-11-16T13:46:30.000Z</time>
      </trkpt>
      <trkpt lat="42.97132" lon="1.9549">
        <ele>399.1</ele>
        <time>2013-11-16T13:46:38.000Z</time>
      </trkpt>
      <trkpt lat="42.97132" lon="1.9549">
        <ele>399.1</ele>
        <time>2013-11-16T13:46:39.000Z</time>
      </trkpt>
      <trkpt lat="42.97132" lon="1.9549">
        <ele>397.6</ele>
        <time>2013-11-16T13:47:51.000Z</time>
      </trkpt>
      <trkpt lat="42.97132" lon="1.9549">
        <ele>399.6</ele>
        <time>2013-11-16T13:47:53.000Z</time>
      </trkpt>
      <trkpt lat="42.97132" lon="1.9549">
        <ele>398.1</ele>
        <time>2013-11-16T13:48:35.000Z</time>
      </trkpt>
      <trkpt lat="42.97132" lon="1.9549">
        <ele>398.1</ele>
        <time>2013-11-16T13:48:41.000Z</time>
      </trkpt>
      <trkpt lat="42.97126" lon="1.95491">
        <ele>398.6</ele>
        <time>2013-11-16T13:48:44.000Z</time>
      </trkpt>
      <trkpt lat="42.97098" lon="1.9549">
        <ele>398.6</ele>
        <time>2013-11-16T13:48:54.000Z</time>
      </trkpt>
      <trkpt lat="42.97082" lon="1.95469">
        <ele>399.1</ele>
        <time>2013-11-16T13:49:02.000Z</time>
      </trkpt>
      <trkpt lat="42.97068" lon="1.95437">
        <ele>399.1</ele>
        <time>2013-11-16T13:49:12.000Z</time>
      </trkpt>
      <trkpt lat="42.97049" lon="1.9542">
        <ele>399.6</ele>
        <time>2013-11-16T13:49:23.000Z</time>
      </trkpt>
      <trkpt lat="42.97029" lon="1.95419">
        <ele>398.6</ele>
        <time>2013-11-16T13:49:31.000Z</time>
      </trkpt>
      <trkpt lat="42.97016" lon="1.95441">
        <ele>397.2</ele>
        <time>2013-11-16T13:49:37.000Z</time>
      </trkpt>
      <trkpt lat="42.97002" lon="1.95458">
        <ele>399.1</ele>
        <time>2013-11-16T13:49:42.000Z</time>
      </trkpt>
      <trkpt lat="42.96992" lon="1.95461">
        <ele>398.1</ele>
        <time>2013-11-16T13:49:45.000Z</time>
      </trkpt>
      <trkpt lat="42.96979" lon="1.9547">
        <ele>397.2</ele>
        <time>2013-11-16T13:49:51.000Z</time>
      </trkpt>
      <trkpt lat="42.96973" lon="1.95474">
        <ele>398.6</ele>
        <time>2013-11-16T13:49:54.000Z</time>
      </trkpt>
      <trkpt lat="42.96956" lon="1.9548">
        <ele>397.6</ele>
        <time>2013-11-16T13:50:00.000Z</time>
      </trkpt>
      <trkpt lat="42.96933" lon="1.95464">
        <ele>398.1</ele>
        <time>2013-11-16T13:50:11.000Z</time>
      </trkpt>
      <trkpt lat="42.96939" lon="1.95427">
        <ele>399.1</ele>
        <time>2013-11-16T13:50:23.000Z</time>
      </trkpt>
      <trkpt lat="42.96945" lon="1.95392">
        <ele>399.1</ele>
        <time>2013-11-16T13:50:31.000Z</time>
      </trkpt>
      <trkpt lat="42.96951" lon="1.95374">
        <ele>399.1</ele>
        <time>2013-11-16T13:50:36.000Z</time>
      </trkpt>
      <trkpt lat="42.96957" lon="1.95322">
        <ele>398.6</ele>
        <time>2013-11-16T13:50:47.000Z</time>
      </trkpt>
      <trkpt lat="42.96955" lon="1.95318">
        <ele>397.6</ele>
        <time>2013-11-16T13:50:48.000Z</time>
      </trkpt>
      <trkpt lat="42.96951" lon="1.95314">
        <ele>399.6</ele>
        <time>2013-11-16T13:50:50.000Z</time>
      </trkpt>
      <trkpt lat="42.9694" lon="1.95319">
        <ele>401</ele>
        <time>2013-11-16T13:50:56.000Z</time>
      </trkpt>
      <trkpt lat="42.96924" lon="1.95326">
        <ele>402</ele>
        <time>2013-11-16T13:51:03.000Z</time>
      </trkpt>
      <trkpt lat="42.9692" lon="1.95328">
        <ele>401.5</ele>
        <time>2013-11-16T13:51:05.000Z</time>
      </trkpt>
      <trkpt lat="42.96914" lon="1.95315">
        <ele>401</ele>
        <time>2013-11-16T13:51:11.000Z</time>
      </trkpt>
      <trkpt lat="42.96917" lon="1.95251">
        <ele>400.5</ele>
        <time>2013-11-16T13:51:27.000Z</time>
      </trkpt>
      <trkpt lat="42.96921" lon="1.95198">
        <ele>400.5</ele>
        <time>2013-11-16T13:51:41.000Z</time>
      </trkpt>
      <trkpt lat="42.96922" lon="1.95164">
        <ele>400.5</ele>
        <time>2013-11-16T13:51:48.000Z</time>
      </trkpt>
      <trkpt lat="42.96925" lon="1.95128">
        <ele>399.1</ele>
        <time>2013-11-16T13:51:58.000Z</time>
      </trkpt>
      <trkpt lat="42.96925" lon="1.9511">
        <ele>399.1</ele>
        <time>2013-11-16T13:52:04.000Z</time>
      </trkpt>
      <trkpt lat="42.96927" lon="1.95108">
        <ele>400.1</ele>
        <time>2013-11-16T13:52:21.000Z</time>
      </trkpt>
      <trkpt lat="42.96927" lon="1.95107">
        <ele>400.5</ele>
        <time>2013-11-16T13:52:23.000Z</time>
      </trkpt>
      <trkpt lat="42.96927" lon="1.95098">
        <ele>399.6</ele>
        <time>2013-11-16T13:52:27.000Z</time>
      </trkpt>
      <trkpt lat="42.96929" lon="1.9504">
        <ele>401</ele>
        <time>2013-11-16T13:52:42.000Z</time>
      </trkpt>
      <trkpt lat="42.96932" lon="1.95017">
        <ele>399.6</ele>
        <time>2013-11-16T13:52:47.000Z</time>
      </trkpt>
      <trkpt lat="42.96933" lon="1.95011">
        <ele>401</ele>
        <time>2013-11-16T13:52:49.000Z</time>
      </trkpt>
      <trkpt lat="42.96933" lon="1.94997">
        <ele>401</ele>
        <time>2013-11-16T13:52:55.000Z</time>
      </trkpt>
      <trkpt lat="42.96934" lon="1.94971">
        <ele>401</ele>
        <time>2013-11-16T13:53:02.000Z</time>
      </trkpt>
      <trkpt lat="42.96938" lon="1.9496">
        <ele>402.5</ele>
        <time>2013-11-16T13:53:05.000Z</time>
      </trkpt>
      <trkpt lat="42.96967" lon="1.94952">
        <ele>401.5</ele>
        <time>2013-11-16T13:53:16.000Z</time>
      </trkpt>
      <trkpt lat="42.96974" lon="1.94956">
        <ele>400.5</ele>
        <time>2013-11-16T13:53:18.000Z</time>
      </trkpt>
      <trkpt lat="42.96978" lon="1.94957">
        <ele>400.5</ele>
        <time>2013-11-16T13:53:19.000Z</time>
      </trkpt>
      <trkpt lat="42.96982" lon="1.94957">
        <ele>401.5</ele>
        <time>2013-11-16T13:53:20.000Z</time>
      </trkpt>
      <trkpt lat="42.96987" lon="1.94958">
        <ele>400.5</ele>
        <time>2013-11-16T13:53:21.000Z</time>
      </trkpt>
      <trkpt lat="42.96991" lon="1.94959">
        <ele>401</ele>
        <time>2013-11-16T13:53:22.000Z</time>
      </trkpt>
      <trkpt lat="42.96996" lon="1.94961">
        <ele>400.1</ele>
        <time>2013-11-16T13:53:23.000Z</time>
      </trkpt>
      <trkpt lat="42.97" lon="1.94962">
        <ele>398.6</ele>
        <time>2013-11-16T13:53:24.000Z</time>
      </trkpt>
      <trkpt lat="42.97004" lon="1.94962">
        <ele>399.6</ele>
        <time>2013-11-16T13:53:25.000Z</time>
      </trkpt>
      <trkpt lat="42.97006" lon="1.9496">
        <ele>398.1</ele>
        <time>2013-11-16T13:53:26.000Z</time>
      </trkpt>
      <trkpt lat="42.97007" lon="1.94958">
        <ele>398.1</ele>
        <time>2013-11-16T13:53:27.000Z</time>
      </trkpt>
      <trkpt lat="42.97025" lon="1.94904">
        <ele>399.1</ele>
        <time>2013-11-16T13:53:44.000Z</time>
      </trkpt>
      <trkpt lat="42.97038" lon="1.94901">
        <ele>399.6</ele>
        <time>2013-11-16T13:53:49.000Z</time>
      </trkpt>
      <trkpt lat="42.97067" lon="1.94931">
        <ele>398.6</ele>
        <time>2013-11-16T13:54:01.000Z</time>
      </trkpt>
      <trkpt lat="42.97091" lon="1.94956">
        <ele>399.1</ele>
        <time>2013-11-16T13:54:11.000Z</time>
      </trkpt>
      <trkpt lat="42.97112" lon="1.94959">
        <ele>399.1</ele>
        <time>2013-11-16T13:54:17.000Z</time>
      </trkpt>
      <trkpt lat="42.97116" lon="1.9496">
        <ele>399.1</ele>
        <time>2013-11-16T13:54:18.000Z</time>
      </trkpt>
      <trkpt lat="42.97149" lon="1.94976">
        <ele>400.1</ele>
        <time>2013-11-16T13:54:29.000Z</time>
      </trkpt>
      <trkpt lat="42.97154" lon="1.94978">
        <ele>401.5</ele>
        <time>2013-11-16T13:54:31.000Z</time>
      </trkpt>
      <trkpt lat="42.97162" lon="1.94983">
        <ele>402</ele>
        <time>2013-11-16T13:54:34.000Z</time>
      </trkpt>
      <trkpt lat="42.97165" lon="1.94986">
        <ele>400.5</ele>
        <time>2013-11-16T13:54:35.000Z</time>
      </trkpt>
      <trkpt lat="42.97169" lon="1.94989">
        <ele>400.5</ele>
        <time>2013-11-16T13:54:36.000Z</time>
      </trkpt>
      <trkpt lat="42.97172" lon="1.9499">
        <ele>400.1</ele>
        <time>2013-11-16T13:54:37.000Z</time>
      </trkpt>
      <trkpt lat="42.97176" lon="1.94993">
        <ele>400.5</ele>
        <time>2013-11-16T13:54:38.000Z</time>
      </trkpt>
      <trkpt lat="42.9718" lon="1.94996">
        <ele>401</ele>
        <time>2013-11-16T13:54:39.000Z</time>
      </trkpt>
      <trkpt lat="42.97195" lon="1.95007">
        <ele>398.6</ele>
        <time>2013-11-16T13:54:43.000Z</time>
      </trkpt>
      <trkpt lat="42.97198" lon="1.95008">
        <ele>398.6</ele>
        <time>2013-11-16T13:54:44.000Z</time>
      </trkpt>
      <trkpt lat="42.972" lon="1.95009">
        <ele>399.6</ele>
        <time>2013-11-16T13:54:45.000Z</time>
      </trkpt>
      <trkpt lat="42.97203" lon="1.95009">
        <ele>399.1</ele>
        <time>2013-11-16T13:54:46.000Z</time>
      </trkpt>
      <trkpt lat="42.97207" lon="1.95011">
        <ele>398.1</ele>
        <time>2013-11-16T13:54:47.000Z</time>
      </trkpt>
      <trkpt lat="42.97211" lon="1.95014">
        <ele>398.1</ele>
        <time>2013-11-16T13:54:48.000Z</time>
      </trkpt>
      <trkpt lat="42.97215" lon="1.95016">
        <ele>399.1</ele>
        <time>2013-11-16T13:54:49.000Z</time>
      </trkpt>
      <trkpt lat="42.97219" lon="1.95017">
        <ele>400.1</ele>
        <time>2013-11-16T13:54:50.000Z</time>
      </trkpt>
      <trkpt lat="42.97224" lon="1.95016">
        <ele>399.1</ele>
        <time>2013-11-16T13:54:51.000Z</time>
      </trkpt>
      <trkpt lat="42.97229" lon="1.95016">
        <ele>399.6</ele>
        <time>2013-11-16T13:54:52.000Z</time>
      </trkpt>
      <trkpt lat="42.97268" lon="1.95016">
        <ele>399.1</ele>
        <time>2013-11-16T13:55:01.000Z</time>
      </trkpt>
      <trkpt lat="42.97272" lon="1.95017">
        <ele>399.1</ele>
        <time>2013-11-16T13:55:02.000Z</time>
      </trkpt>
      <trkpt lat="42.97292" lon="1.95019">
        <ele>400.5</ele>
        <time>2013-11-16T13:55:07.000Z</time>
      </trkpt>
      <trkpt lat="42.97297" lon="1.95017">
        <ele>399.1</ele>
        <time>2013-11-16T13:55:08.000Z</time>
      </trkpt>
      <trkpt lat="42.97301" lon="1.95015">
        <ele>399.1</ele>
        <time>2013-11-16T13:55:09.000Z</time>
      </trkpt>
      <trkpt lat="42.97304" lon="1.95012">
        <ele>398.6</ele>
        <time>2013-11-16T13:55:10.000Z</time>
      </trkpt>
      <trkpt lat="42.97308" lon="1.9501">
        <ele>400.5</ele>
        <time>2013-11-16T13:55:11.000Z</time>
      </trkpt>
      <trkpt lat="42.97312" lon="1.95009">
        <ele>399.1</ele>
        <time>2013-11-16T13:55:12.000Z</time>
      </trkpt>
      <trkpt lat="42.9734" lon="1.95023">
        <ele>401</ele>
        <time>2013-11-16T13:55:20.000Z</time>
      </trkpt>
      <trkpt lat="42.97354" lon="1.95044">
        <ele>400.1</ele>
        <time>2013-11-16T13:55:26.000Z</time>
      </trkpt>
      <trkpt lat="42.97356" lon="1.95048">
        <ele>400.5</ele>
        <time>2013-11-16T13:55:27.000Z</time>
      </trkpt>
      <trkpt lat="42.97358" lon="1.95053">
        <ele>401.5</ele>
        <time>2013-11-16T13:55:28.000Z</time>
      </trkpt>
      <trkpt lat="42.97359" lon="1.95058">
        <ele>402</ele>
        <time>2013-11-16T13:55:29.000Z</time>
      </trkpt>
      <trkpt lat="42.97361" lon="1.95064">
        <ele>399.6</ele>
        <time>2013-11-16T13:55:30.000Z</time>
      </trkpt>
      <trkpt lat="42.97362" lon="1.95071">
        <ele>399.6</ele>
        <time>2013-11-16T13:55:31.000Z</time>
      </trkpt>
      <trkpt lat="42.97363" lon="1.95083">
        <ele>399.6</ele>
        <time>2013-11-16T13:55:33.000Z</time>
      </trkpt>
      <trkpt lat="42.97363" lon="1.95089">
        <ele>399.6</ele>
        <time>2013-11-16T13:55:34.000Z</time>
      </trkpt>
      <trkpt lat="42.97363" lon="1.95094">
        <ele>400.1</ele>
        <time>2013-11-16T13:55:35.000Z</time>
      </trkpt>
      <trkpt lat="42.97364" lon="1.95098">
        <ele>400.5</ele>
        <time>2013-11-16T13:55:36.000Z</time>
      </trkpt>
      <trkpt lat="42.97367" lon="1.95109">
        <ele>400.5</ele>
        <time>2013-11-16T13:55:38.000Z</time>
      </trkpt>
      <trkpt lat="42.9737" lon="1.95114">
        <ele>398.6</ele>
        <time>2013-11-16T13:55:39.000Z</time>
      </trkpt>
      <trkpt lat="42.97378" lon="1.95129">
        <ele>398.1</ele>
        <time>2013-11-16T13:55:43.000Z</time>
      </trkpt>
      <trkpt lat="42.97381" lon="1.95132">
        <ele>398.6</ele>
        <time>2013-11-16T13:55:44.000Z</time>
      </trkpt>
      <trkpt lat="42.97385" lon="1.95135">
        <ele>398.1</ele>
        <time>2013-11-16T13:55:45.000Z</time>
      </trkpt>
      <trkpt lat="42.97392" lon="1.95141">
        <ele>399.6</ele>
        <time>2013-11-16T13:55:47.000Z</time>
      </trkpt>
      <trkpt lat="42.97396" lon="1.95142">
        <ele>398.6</ele>
        <time>2013-11-16T13:55:48.000Z</time>
      </trkpt>
      <trkpt lat="42.97401" lon="1.95143">
        <ele>399.1</ele>
        <time>2013-11-16T13:55:49.000Z</time>
      </trkpt>
      <trkpt lat="42.97433" lon="1.95138">
        <ele>398.6</ele>
        <time>2013-11-16T13:55:58.000Z</time>
      </trkpt>
      <trkpt lat="42.97436" lon="1.95136">
        <ele>399.1</ele>
        <time>2013-11-16T13:55:59.000Z</time>
      </trkpt>
      <trkpt lat="42.97439" lon="1.95133">
        <ele>399.6</ele>
        <time>2013-11-16T13:56:00.000Z</time>
      </trkpt>
      <trkpt lat="42.97451" lon="1.95124">
        <ele>398.1</ele>
        <time>2013-11-16T13:56:04.000Z</time>
      </trkpt>
      <trkpt lat="42.97454" lon="1.95123">
        <ele>398.6</ele>
        <time>2013-11-16T13:56:05.000Z</time>
      </trkpt>
      <trkpt lat="42.97458" lon="1.95122">
        <ele>398.6</ele>
        <time>2013-11-16T13:56:06.000Z</time>
      </trkpt>
      <trkpt lat="42.97461" lon="1.95121">
        <ele>399.1</ele>
        <time>2013-11-16T13:56:07.000Z</time>
      </trkpt>
      <trkpt lat="42.97463" lon="1.95119">
        <ele>398.6</ele>
        <time>2013-11-16T13:56:08.000Z</time>
      </trkpt>
      <trkpt lat="42.97466" lon="1.95117">
        <ele>398.6</ele>
        <time>2013-11-16T13:56:09.000Z</time>
      </trkpt>
      <trkpt lat="42.97469" lon="1.95114">
        <ele>399.6</ele>
        <time>2013-11-16T13:56:10.000Z</time>
      </trkpt>
      <trkpt lat="42.97494" lon="1.95065">
        <ele>398.6</ele>
        <time>2013-11-16T13:56:21.000Z</time>
      </trkpt>
      <trkpt lat="42.97502" lon="1.95026">
        <ele>399.6</ele>
        <time>2013-11-16T13:56:28.000Z</time>
      </trkpt>
      <trkpt lat="42.97504" lon="1.9502">
        <ele>399.6</ele>
        <time>2013-11-16T13:56:29.000Z</time>
      </trkpt>
      <trkpt lat="42.97507" lon="1.95009">
        <ele>399.6</ele>
        <time>2013-11-16T13:56:31.000Z</time>
      </trkpt>
      <trkpt lat="42.97508" lon="1.95004">
        <ele>399.6</ele>
        <time>2013-11-16T13:56:32.000Z</time>
      </trkpt>
      <trkpt lat="42.97511" lon="1.94993">
        <ele>399.6</ele>
        <time>2013-11-16T13:56:34.000Z</time>
      </trkpt>
      <trkpt lat="42.97514" lon="1.94987">
        <ele>399.6</ele>
        <time>2013-11-16T13:56:35.000Z</time>
      </trkpt>
      <trkpt lat="42.97517" lon="1.94982">
        <ele>399.6</ele>
        <time>2013-11-16T13:56:36.000Z</time>
      </trkpt>
      <trkpt lat="42.97519" lon="1.94977">
        <ele>399.1</ele>
        <time>2013-11-16T13:56:37.000Z</time>
      </trkpt>
      <trkpt lat="42.97522" lon="1.94972">
        <ele>399.6</ele>
        <time>2013-11-16T13:56:38.000Z</time>
      </trkpt>
      <trkpt lat="42.97525" lon="1.94967">
        <ele>400.5</ele>
        <time>2013-11-16T13:56:39.000Z</time>
      </trkpt>
      <trkpt lat="42.97527" lon="1.94961">
        <ele>400.5</ele>
        <time>2013-11-16T13:56:40.000Z</time>
      </trkpt>
      <trkpt lat="42.9753" lon="1.94956">
        <ele>399.6</ele>
        <time>2013-11-16T13:56:41.000Z</time>
      </trkpt>
      <trkpt lat="42.97544" lon="1.94924">
        <ele>398.6</ele>
        <time>2013-11-16T13:56:47.000Z</time>
      </trkpt>
      <trkpt lat="42.97556" lon="1.94892">
        <ele>400.1</ele>
        <time>2013-11-16T13:56:53.000Z</time>
      </trkpt>
      <trkpt lat="42.97558" lon="1.94886">
        <ele>400.1</ele>
        <time>2013-11-16T13:56:54.000Z</time>
      </trkpt>
      <trkpt lat="42.9756" lon="1.9488">
        <ele>399.1</ele>
        <time>2013-11-16T13:56:55.000Z</time>
      </trkpt>
      <trkpt lat="42.97562" lon="1.94874">
        <ele>398.6</ele>
        <time>2013-11-16T13:56:56.000Z</time>
      </trkpt>
      <trkpt lat="42.97563" lon="1.94869">
        <ele>399.6</ele>
        <time>2013-11-16T13:56:57.000Z</time>
      </trkpt>
      <trkpt lat="42.97566" lon="1.94857">
        <ele>399.1</ele>
        <time>2013-11-16T13:56:59.000Z</time>
      </trkpt>
      <trkpt lat="42.97568" lon="1.94851">
        <ele>399.1</ele>
        <time>2013-11-16T13:57:00.000Z</time>
      </trkpt>
      <trkpt lat="42.97585" lon="1.94801">
        <ele>399.1</ele>
        <time>2013-11-16T13:57:09.000Z</time>
      </trkpt>
      <trkpt lat="42.97586" lon="1.94796">
        <ele>398.6</ele>
        <time>2013-11-16T13:57:10.000Z</time>
      </trkpt>
      <trkpt lat="42.97588" lon="1.9479">
        <ele>398.1</ele>
        <time>2013-11-16T13:57:11.000Z</time>
      </trkpt>
      <trkpt lat="42.97591" lon="1.94785">
        <ele>399.1</ele>
        <time>2013-11-16T13:57:12.000Z</time>
      </trkpt>
      <trkpt lat="42.97592" lon="1.94779">
        <ele>398.1</ele>
        <time>2013-11-16T13:57:13.000Z</time>
      </trkpt>
      <trkpt lat="42.97594" lon="1.94774">
        <ele>399.1</ele>
        <time>2013-11-16T13:57:14.000Z</time>
      </trkpt>
      <trkpt lat="42.97597" lon="1.94769">
        <ele>399.6</ele>
        <time>2013-11-16T13:57:15.000Z</time>
      </trkpt>
      <trkpt lat="42.97612" lon="1.94727">
        <ele>399.6</ele>
        <time>2013-11-16T13:57:24.000Z</time>
      </trkpt>
      <trkpt lat="42.97619" lon="1.94705">
        <ele>399.1</ele>
        <time>2013-11-16T13:57:28.000Z</time>
      </trkpt>
      <trkpt lat="42.9762" lon="1.94699">
        <ele>398.1</ele>
        <time>2013-11-16T13:57:29.000Z</time>
      </trkpt>
      <trkpt lat="42.9763" lon="1.94659">
        <ele>399.6</ele>
        <time>2013-11-16T13:57:36.000Z</time>
      </trkpt>
      <trkpt lat="42.9763" lon="1.94653">
        <ele>398.1</ele>
        <time>2013-11-16T13:57:37.000Z</time>
      </trkpt>
      <trkpt lat="42.97626" lon="1.946">
        <ele>399.6</ele>
        <time>2013-11-16T13:57:47.000Z</time>
      </trkpt>
      <trkpt lat="42.97627" lon="1.94589">
        <ele>399.6</ele>
        <time>2013-11-16T13:57:49.000Z</time>
      </trkpt>
      <trkpt lat="42.97627" lon="1.94583">
        <ele>397.6</ele>
        <time>2013-11-16T13:57:50.000Z</time>
      </trkpt>
      <trkpt lat="42.97628" lon="1.94578">
        <ele>399.1</ele>
        <time>2013-11-16T13:57:51.000Z</time>
      </trkpt>
      <trkpt lat="42.97629" lon="1.94567">
        <ele>398.6</ele>
        <time>2013-11-16T13:57:53.000Z</time>
      </trkpt>
      <trkpt lat="42.97635" lon="1.94556">
        <ele>398.6</ele>
        <time>2013-11-16T13:57:55.000Z</time>
      </trkpt>
      <trkpt lat="42.97637" lon="1.94551">
        <ele>398.6</ele>
        <time>2013-11-16T13:57:56.000Z</time>
      </trkpt>
      <trkpt lat="42.97646" lon="1.94538">
        <ele>399.6</ele>
        <time>2013-11-16T13:57:59.000Z</time>
      </trkpt>
      <trkpt lat="42.97655" lon="1.94489">
        <ele>400.1</ele>
        <time>2013-11-16T13:58:08.000Z</time>
      </trkpt>
      <trkpt lat="42.97648" lon="1.94455">
        <ele>398.6</ele>
        <time>2013-11-16T13:58:15.000Z</time>
      </trkpt>
      <trkpt lat="42.97649" lon="1.94452">
        <ele>399.6</ele>
        <time>2013-11-16T13:58:16.000Z</time>
      </trkpt>
      <trkpt lat="42.97649" lon="1.94449">
        <ele>398.1</ele>
        <time>2013-11-16T13:58:17.000Z</time>
      </trkpt>
      <trkpt lat="42.97648" lon="1.94446">
        <ele>397.2</ele>
        <time>2013-11-16T13:58:18.000Z</time>
      </trkpt>
      <trkpt lat="42.97646" lon="1.94444">
        <ele>397.2</ele>
        <time>2013-11-16T13:58:19.000Z</time>
      </trkpt>
      <trkpt lat="42.97645" lon="1.94442">
        <ele>398.6</ele>
        <time>2013-11-16T13:58:20.000Z</time>
      </trkpt>
      <trkpt lat="42.97642" lon="1.94438">
        <ele>398.6</ele>
        <time>2013-11-16T13:58:27.000Z</time>
      </trkpt>
      <trkpt lat="42.97642" lon="1.94438">
        <ele>395.2</ele>
        <time>2013-11-16T13:59:02.000Z</time>
      </trkpt>
      <trkpt lat="42.97642" lon="1.94438">
        <ele>391.4</ele>
        <time>2013-11-16T14:00:16.000Z</time>
      </trkpt>
      <trkpt lat="42.97642" lon="1.94438">
        <ele>399.6</ele>
        <time>2013-11-16T14:00:17.000Z</time>
      </trkpt>
      <trkpt lat="42.9764" lon="1.94435">
        <ele>400.5</ele>
        <time>2013-11-16T14:00:22.000Z</time>
      </trkpt>
      <trkpt lat="42.97619" lon="1.9443">
        <ele>398.6</ele>
        <time>2013-11-16T14:00:34.000Z</time>
      </trkpt>
      <trkpt lat="42.97617" lon="1.9443">
        <ele>397.6</ele>
        <time>2013-11-16T14:00:35.000Z</time>
      </trkpt>
      <trkpt lat="42.97592" lon="1.94439">
        <ele>395.2</ele>
        <time>2013-11-16T14:00:46.000Z</time>
      </trkpt>
      <trkpt lat="42.9759" lon="1.94439">
        <ele>398.1</ele>
        <time>2013-11-16T14:00:47.000Z</time>
      </trkpt>
      <trkpt lat="42.97588" lon="1.94438">
        <ele>399.1</ele>
        <time>2013-11-16T14:00:48.000Z</time>
      </trkpt>
      <trkpt lat="42.9756" lon="1.9444">
        <ele>397.6</ele>
        <time>2013-11-16T14:01:00.000Z</time>
      </trkpt>
      <trkpt lat="42.97531" lon="1.94451">
        <ele>398.6</ele>
        <time>2013-11-16T14:01:14.000Z</time>
      </trkpt>
      <trkpt lat="42.97521" lon="1.94458">
        <ele>399.1</ele>
        <time>2013-11-16T14:01:19.000Z</time>
      </trkpt>
      <trkpt lat="42.97507" lon="1.94469">
        <ele>399.1</ele>
        <time>2013-11-16T14:01:26.000Z</time>
      </trkpt>
      <trkpt lat="42.97489" lon="1.94494">
        <ele>399.6</ele>
        <time>2013-11-16T14:01:35.000Z</time>
      </trkpt>
      <trkpt lat="42.97468" lon="1.94515">
        <ele>398.6</ele>
        <time>2013-11-16T14:01:43.000Z</time>
      </trkpt>
      <trkpt lat="42.97457" lon="1.94522">
        <ele>399.1</ele>
        <time>2013-11-16T14:01:47.000Z</time>
      </trkpt>
      <trkpt lat="42.97448" lon="1.94533">
        <ele>398.1</ele>
        <time>2013-11-16T14:01:51.000Z</time>
      </trkpt>
      <trkpt lat="42.97407" lon="1.94536">
        <ele>399.6</ele>
        <time>2013-11-16T14:02:02.000Z</time>
      </trkpt>
      <trkpt lat="42.97371" lon="1.94536">
        <ele>398.6</ele>
        <time>2013-11-16T14:02:12.000Z</time>
      </trkpt>
      <trkpt lat="42.97356" lon="1.94538">
        <ele>398.1</ele>
        <time>2013-11-16T14:02:17.000Z</time>
      </trkpt>
      <trkpt lat="42.97342" lon="1.94543">
        <ele>399.1</ele>
        <time>2013-11-16T14:02:23.000Z</time>
      </trkpt>
      <trkpt lat="42.97334" lon="1.94557">
        <ele>399.1</ele>
        <time>2013-11-16T14:02:28.000Z</time>
      </trkpt>
      <trkpt lat="42.9732" lon="1.94586">
        <ele>398.6</ele>
        <time>2013-11-16T14:02:37.000Z</time>
      </trkpt>
      <trkpt lat="42.97302" lon="1.9462">
        <ele>398.6</ele>
        <time>2013-11-16T14:02:46.000Z</time>
      </trkpt>
      <trkpt lat="42.97294" lon="1.94626">
        <ele>397.6</ele>
        <time>2013-11-16T14:02:49.000Z</time>
      </trkpt>
      <trkpt lat="42.97283" lon="1.94615">
        <ele>398.1</ele>
        <time>2013-11-16T14:02:56.000Z</time>
      </trkpt>
      <trkpt lat="42.9728" lon="1.94582">
        <ele>399.1</ele>
        <time>2013-11-16T14:03:06.000Z</time>
      </trkpt>
      <trkpt lat="42.97286" lon="1.94548">
        <ele>398.6</ele>
        <time>2013-11-16T14:03:14.000Z</time>
      </trkpt>
      <trkpt lat="42.97292" lon="1.94518">
        <ele>399.6</ele>
        <time>2013-11-16T14:03:22.000Z</time>
      </trkpt>
      <trkpt lat="42.97296" lon="1.945">
        <ele>399.1</ele>
        <time>2013-11-16T14:03:26.000Z</time>
      </trkpt>
      <trkpt lat="42.97301" lon="1.94475">
        <ele>398.1</ele>
        <time>2013-11-16T14:03:31.000Z</time>
      </trkpt>
      <trkpt lat="42.97304" lon="1.94438">
        <ele>398.6</ele>
        <time>2013-11-16T14:03:41.000Z</time>
      </trkpt>
      <trkpt lat="42.97306" lon="1.94428">
        <ele>397.6</ele>
        <time>2013-11-16T14:03:43.000Z</time>
      </trkpt>
      <trkpt lat="42.97323" lon="1.94406">
        <ele>398.1</ele>
        <time>2013-11-16T14:03:52.000Z</time>
      </trkpt>
      <trkpt lat="42.97332" lon="1.9437">
        <ele>398.1</ele>
        <time>2013-11-16T14:04:02.000Z</time>
      </trkpt>
      <trkpt lat="42.97345" lon="1.94343">
        <ele>397.6</ele>
        <time>2013-11-16T14:04:10.000Z</time>
      </trkpt>
      <trkpt lat="42.97347" lon="1.94307">
        <ele>399.1</ele>
        <time>2013-11-16T14:04:20.000Z</time>
      </trkpt>
      <trkpt lat="42.97351" lon="1.94299">
        <ele>398.1</ele>
        <time>2013-11-16T14:04:22.000Z</time>
      </trkpt>
      <trkpt lat="42.97361" lon="1.9428">
        <ele>398.6</ele>
        <time>2013-11-16T14:04:28.000Z</time>
      </trkpt>
      <trkpt lat="42.97366" lon="1.9427">
        <ele>398.1</ele>
        <time>2013-11-16T14:04:31.000Z</time>
      </trkpt>
      <trkpt lat="42.97376" lon="1.94232">
        <ele>398.6</ele>
        <time>2013-11-16T14:04:41.000Z</time>
      </trkpt>
      <trkpt lat="42.97378" lon="1.94228">
        <ele>398.6</ele>
        <time>2013-11-16T14:04:43.000Z</time>
      </trkpt>
      <trkpt lat="42.97383" lon="1.94211">
        <ele>397.6</ele>
        <time>2013-11-16T14:04:48.000Z</time>
      </trkpt>
      <trkpt lat="42.97385" lon="1.94199">
        <ele>397.6</ele>
        <time>2013-11-16T14:04:52.000Z</time>
      </trkpt>
      <trkpt lat="42.97393" lon="1.94164">
        <ele>398.6</ele>
        <time>2013-11-16T14:05:01.000Z</time>
      </trkpt>
      <trkpt lat="42.97397" lon="1.94156">
        <ele>397.6</ele>
        <time>2013-11-16T14:05:03.000Z</time>
      </trkpt>
      <trkpt lat="42.97398" lon="1.94147">
        <ele>397.6</ele>
        <time>2013-11-16T14:05:06.000Z</time>
      </trkpt>
      <trkpt lat="42.9741" lon="1.94126">
        <ele>398.1</ele>
        <time>2013-11-16T14:05:11.000Z</time>
      </trkpt>
      <trkpt lat="42.97426" lon="1.941">
        <ele>398.1</ele>
        <time>2013-11-16T14:05:18.000Z</time>
      </trkpt>
      <trkpt lat="42.97431" lon="1.94079">
        <ele>398.1</ele>
        <time>2013-11-16T14:05:24.000Z</time>
      </trkpt>
      <trkpt lat="42.97432" lon="1.94069">
        <ele>397.2</ele>
        <time>2013-11-16T14:05:27.000Z</time>
      </trkpt>
      <trkpt lat="42.97437" lon="1.94045">
        <ele>398.1</ele>
        <time>2013-11-16T14:05:34.000Z</time>
      </trkpt>
      <trkpt lat="42.97437" lon="1.94041">
        <ele>396.7</ele>
        <time>2013-11-16T14:05:35.000Z</time>
      </trkpt>
      <trkpt lat="42.97439" lon="1.94024">
        <ele>398.6</ele>
        <time>2013-11-16T14:05:40.000Z</time>
      </trkpt>
      <trkpt lat="42.97448" lon="1.9401">
        <ele>397.6</ele>
        <time>2013-11-16T14:05:47.000Z</time>
      </trkpt>
      <trkpt lat="42.97449" lon="1.94003">
        <ele>398.1</ele>
        <time>2013-11-16T14:05:49.000Z</time>
      </trkpt>
      <trkpt lat="42.97451" lon="1.93992">
        <ele>397.6</ele>
        <time>2013-11-16T14:05:51.000Z</time>
      </trkpt>
      <trkpt lat="42.97458" lon="1.93939">
        <ele>398.1</ele>
        <time>2013-11-16T14:06:03.000Z</time>
      </trkpt>
      <trkpt lat="42.97462" lon="1.93923">
        <ele>398.1</ele>
        <time>2013-11-16T14:06:08.000Z</time>
      </trkpt>
      <trkpt lat="42.97465" lon="1.93915">
        <ele>396.7</ele>
        <time>2013-11-16T14:06:10.000Z</time>
      </trkpt>
      <trkpt lat="42.97467" lon="1.93889">
        <ele>398.1</ele>
        <time>2013-11-16T14:06:16.000Z</time>
      </trkpt>
      <trkpt lat="42.97473" lon="1.9388">
        <ele>398.1</ele>
        <time>2013-11-16T14:06:19.000Z</time>
      </trkpt>
      <trkpt lat="42.97477" lon="1.93864">
        <ele>398.6</ele>
        <time>2013-11-16T14:06:24.000Z</time>
      </trkpt>
      <trkpt lat="42.9748" lon="1.93858">
        <ele>397.6</ele>
        <time>2013-11-16T14:06:26.000Z</time>
      </trkpt>
      <trkpt lat="42.97482" lon="1.93816">
        <ele>398.1</ele>
        <time>2013-11-16T14:06:36.000Z</time>
      </trkpt>
      <trkpt lat="42.9748" lon="1.9381">
        <ele>399.1</ele>
        <time>2013-11-16T14:06:38.000Z</time>
      </trkpt>
      <trkpt lat="42.97483" lon="1.93788">
        <ele>399.1</ele>
        <time>2013-11-16T14:06:44.000Z</time>
      </trkpt>
      <trkpt lat="42.97493" lon="1.93767">
        <ele>397.2</ele>
        <time>2013-11-16T14:06:49.000Z</time>
      </trkpt>
      <trkpt lat="42.97494" lon="1.93728">
        <ele>398.1</ele>
        <time>2013-11-16T14:06:59.000Z</time>
      </trkpt>
      <trkpt lat="42.97501" lon="1.93711">
        <ele>398.1</ele>
        <time>2013-11-16T14:07:03.000Z</time>
      </trkpt>
      <trkpt lat="42.97507" lon="1.93695">
        <ele>397.2</ele>
        <time>2013-11-16T14:07:07.000Z</time>
      </trkpt>
      <trkpt lat="42.97507" lon="1.93687">
        <ele>397.2</ele>
        <time>2013-11-16T14:07:09.000Z</time>
      </trkpt>
      <trkpt lat="42.97509" lon="1.93658">
        <ele>397.6</ele>
        <time>2013-11-16T14:07:20.000Z</time>
      </trkpt>
      <trkpt lat="42.97509" lon="1.93658">
        <ele>396.7</ele>
        <time>2013-11-16T14:07:25.000Z</time>
      </trkpt>
      <trkpt lat="42.97509" lon="1.93658">
        <ele>396.2</ele>
        <time>2013-11-16T14:07:41.000Z</time>
      </trkpt>
      <trkpt lat="42.97509" lon="1.93658">
        <ele>397.6</ele>
        <time>2013-11-16T14:07:46.000Z</time>
      </trkpt>
      <trkpt lat="42.97509" lon="1.93658">
        <ele>397.2</ele>
        <time>2013-11-16T14:08:45.000Z</time>
      </trkpt>
      <trkpt lat="42.97509" lon="1.93653">
        <ele>397.2</ele>
        <time>2013-11-16T14:10:39.000Z</time>
      </trkpt>
      <trkpt lat="42.97509" lon="1.93652">
        <ele>397.2</ele>
        <time>2013-11-16T14:11:18.000Z</time>
      </trkpt>
      <trkpt lat="42.97509" lon="1.93651">
        <ele>396.2</ele>
        <time>2013-11-16T14:12:34.000Z</time>
      </trkpt>
      <trkpt lat="42.97509" lon="1.93652">
        <ele>395.2</ele>
        <time>2013-11-16T14:13:14.000Z</time>
      </trkpt>
      <trkpt lat="42.97516" lon="1.93634">
        <ele>396.2</ele>
        <time>2013-11-16T14:13:23.000Z</time>
      </trkpt>
      <trkpt lat="42.97515" lon="1.93623">
        <ele>395.2</ele>
        <time>2013-11-16T14:13:26.000Z</time>
      </trkpt>
      <trkpt lat="42.97518" lon="1.93606">
        <ele>396.2</ele>
        <time>2013-11-16T14:13:31.000Z</time>
      </trkpt>
      <trkpt lat="42.9752" lon="1.93583">
        <ele>396.2</ele>
        <time>2013-11-16T14:13:37.000Z</time>
      </trkpt>
      <trkpt lat="42.97522" lon="1.93559">
        <ele>395.7</ele>
        <time>2013-11-16T14:13:42.000Z</time>
      </trkpt>
      <trkpt lat="42.97525" lon="1.93531">
        <ele>397.2</ele>
        <time>2013-11-16T14:13:50.000Z</time>
      </trkpt>
      <trkpt lat="42.97534" lon="1.93486">
        <ele>396.2</ele>
        <time>2013-11-16T14:14:01.000Z</time>
      </trkpt>
      <trkpt lat="42.97549" lon="1.93438">
        <ele>396.2</ele>
        <time>2013-11-16T14:14:10.000Z</time>
      </trkpt>
      <trkpt lat="42.97553" lon="1.93426">
        <ele>395.2</ele>
        <time>2013-11-16T14:14:12.000Z</time>
      </trkpt>
      <trkpt lat="42.97554" lon="1.9342">
        <ele>395.2</ele>
        <time>2013-11-16T14:14:13.000Z</time>
      </trkpt>
      <trkpt lat="42.97563" lon="1.93394">
        <ele>394.8</ele>
        <time>2013-11-16T14:14:18.000Z</time>
      </trkpt>
      <trkpt lat="42.97564" lon="1.93389">
        <ele>393.8</ele>
        <time>2013-11-16T14:14:19.000Z</time>
      </trkpt>
      <trkpt lat="42.97563" lon="1.93353">
        <ele>395.7</ele>
        <time>2013-11-16T14:14:27.000Z</time>
      </trkpt>
      <trkpt lat="42.97564" lon="1.93335">
        <ele>395.7</ele>
        <time>2013-11-16T14:14:31.000Z</time>
      </trkpt>
      <trkpt lat="42.97564" lon="1.93331">
        <ele>395.7</ele>
        <time>2013-11-16T14:14:32.000Z</time>
      </trkpt>
      <trkpt lat="42.97564" lon="1.93328">
        <ele>396.7</ele>
        <time>2013-11-16T14:14:33.000Z</time>
      </trkpt>
      <trkpt lat="42.97564" lon="1.93324">
        <ele>396.7</ele>
        <time>2013-11-16T14:14:34.000Z</time>
      </trkpt>
      <trkpt lat="42.97563" lon="1.93317">
        <ele>396.2</ele>
        <time>2013-11-16T14:14:36.000Z</time>
      </trkpt>
      <trkpt lat="42.97562" lon="1.93314">
        <ele>395.7</ele>
        <time>2013-11-16T14:14:37.000Z</time>
      </trkpt>
      <trkpt lat="42.97562" lon="1.9331">
        <ele>395.7</ele>
        <time>2013-11-16T14:14:38.000Z</time>
      </trkpt>
      <trkpt lat="42.97561" lon="1.93307">
        <ele>395.2</ele>
        <time>2013-11-16T14:14:39.000Z</time>
      </trkpt>
      <trkpt lat="42.97559" lon="1.93304">
        <ele>396.2</ele>
        <time>2013-11-16T14:14:40.000Z</time>
      </trkpt>
      <trkpt lat="42.97557" lon="1.93302">
        <ele>396.7</ele>
        <time>2013-11-16T14:14:41.000Z</time>
      </trkpt>
      <trkpt lat="42.97555" lon="1.933">
        <ele>397.6</ele>
        <time>2013-11-16T14:14:42.000Z</time>
      </trkpt>
      <trkpt lat="42.97553" lon="1.93298">
        <ele>397.6</ele>
        <time>2013-11-16T14:14:43.000Z</time>
      </trkpt>
      <trkpt lat="42.97551" lon="1.93295">
        <ele>398.6</ele>
        <time>2013-11-16T14:14:53.000Z</time>
      </trkpt>
      <trkpt lat="42.97549" lon="1.93288">
        <ele>397.2</ele>
        <time>2013-11-16T14:15:04.000Z</time>
      </trkpt>
      <trkpt lat="42.9755" lon="1.93284">
        <ele>397.6</ele>
        <time>2013-11-16T14:15:05.000Z</time>
      </trkpt>
      <trkpt lat="42.9755" lon="1.9328">
        <ele>395.2</ele>
        <time>2013-11-16T14:15:06.000Z</time>
      </trkpt>
      <trkpt lat="42.97549" lon="1.93277">
        <ele>395.2</ele>
        <time>2013-11-16T14:15:07.000Z</time>
      </trkpt>
      <trkpt lat="42.9755" lon="1.9327">
        <ele>394.3</ele>
        <time>2013-11-16T14:15:17.000Z</time>
      </trkpt>
      <trkpt lat="42.9755" lon="1.9327">
        <ele>395.7</ele>
        <time>2013-11-16T14:15:52.000Z</time>
      </trkpt>
      <trkpt lat="42.9755" lon="1.93269">
        <ele>394.8</ele>
        <time>2013-11-16T14:16:39.000Z</time>
      </trkpt>
      <trkpt lat="42.97552" lon="1.9327">
        <ele>394.3</ele>
        <time>2013-11-16T14:16:40.000Z</time>
      </trkpt>
      <trkpt lat="42.97555" lon="1.93271">
        <ele>395.2</ele>
        <time>2013-11-16T14:16:42.000Z</time>
      </trkpt>
      <trkpt lat="42.97557" lon="1.93272">
        <ele>395.2</ele>
        <time>2013-11-16T14:16:44.000Z</time>
      </trkpt>
      <trkpt lat="42.9756" lon="1.93273">
        <ele>396.7</ele>
        <time>2013-11-16T14:16:48.000Z</time>
      </trkpt>
      <trkpt lat="42.97569" lon="1.93278">
        <ele>394.8</ele>
        <time>2013-11-16T14:16:53.000Z</time>
      </trkpt>
      <trkpt lat="42.97573" lon="1.93281">
        <ele>394.8</ele>
        <time>2013-11-16T14:16:55.000Z</time>
      </trkpt>
      <trkpt lat="42.97596" lon="1.93301">
        <ele>394.3</ele>
        <time>2013-11-16T14:17:03.000Z</time>
      </trkpt>
      <trkpt lat="42.97618" lon="1.93323">
        <ele>394.8</ele>
        <time>2013-11-16T14:17:11.000Z</time>
      </trkpt>
      <trkpt lat="42.97626" lon="1.93332">
        <ele>396.2</ele>
        <time>2013-11-16T14:17:14.000Z</time>
      </trkpt>
      <trkpt lat="42.97635" lon="1.93355">
        <ele>395.7</ele>
        <time>2013-11-16T14:17:20.000Z</time>
      </trkpt>
      <trkpt lat="42.97639" lon="1.9337">
        <ele>394.3</ele>
        <time>2013-11-16T14:17:23.000Z</time>
      </trkpt>
      <trkpt lat="42.97646" lon="1.93415">
        <ele>394.8</ele>
        <time>2013-11-16T14:17:33.000Z</time>
      </trkpt>
      <trkpt lat="42.97662" lon="1.93415">
        <ele>394.3</ele>
        <time>2013-11-16T14:17:40.000Z</time>
      </trkpt>
      <trkpt lat="42.97669" lon="1.9341">
        <ele>394.8</ele>
        <time>2013-11-16T14:17:43.000Z</time>
      </trkpt>
      <trkpt lat="42.97678" lon="1.9337">
        <ele>395.2</ele>
        <time>2013-11-16T14:17:53.000Z</time>
      </trkpt>
      <trkpt lat="42.97678" lon="1.93366">
        <ele>395.7</ele>
        <time>2013-11-16T14:17:54.000Z</time>
      </trkpt>
      <trkpt lat="42.9769" lon="1.93333">
        <ele>395.2</ele>
        <time>2013-11-16T14:18:02.000Z</time>
      </trkpt>
      <trkpt lat="42.97698" lon="1.93314">
        <ele>395.7</ele>
        <time>2013-11-16T14:18:08.000Z</time>
      </trkpt>
      <trkpt lat="42.97701" lon="1.93296">
        <ele>394.8</ele>
        <time>2013-11-16T14:18:14.000Z</time>
      </trkpt>
      <trkpt lat="42.97704" lon="1.9327">
        <ele>397.2</ele>
        <time>2013-11-16T14:18:20.000Z</time>
      </trkpt>
      <trkpt lat="42.97704" lon="1.93264">
        <ele>397.2</ele>
        <time>2013-11-16T14:18:22.000Z</time>
      </trkpt>
      <trkpt lat="42.97706" lon="1.93256">
        <ele>398.1</ele>
        <time>2013-11-16T14:18:24.000Z</time>
      </trkpt>
      <trkpt lat="42.97723" lon="1.93224">
        <ele>397.6</ele>
        <time>2013-11-16T14:18:30.000Z</time>
      </trkpt>
      <trkpt lat="42.97729" lon="1.93196">
        <ele>395.7</ele>
        <time>2013-11-16T14:18:36.000Z</time>
      </trkpt>
      <trkpt lat="42.97732" lon="1.93185">
        <ele>395.7</ele>
        <time>2013-11-16T14:18:38.000Z</time>
      </trkpt>
      <trkpt lat="42.97734" lon="1.93179">
        <ele>395.2</ele>
        <time>2013-11-16T14:18:39.000Z</time>
      </trkpt>
      <trkpt lat="42.97735" lon="1.93173">
        <ele>394.8</ele>
        <time>2013-11-16T14:18:40.000Z</time>
      </trkpt>
      <trkpt lat="42.97744" lon="1.9314">
        <ele>396.2</ele>
        <time>2013-11-16T14:18:46.000Z</time>
      </trkpt>
      <trkpt lat="42.97746" lon="1.93134">
        <ele>395.2</ele>
        <time>2013-11-16T14:18:47.000Z</time>
      </trkpt>
      <trkpt lat="42.97747" lon="1.93128">
        <ele>396.7</ele>
        <time>2013-11-16T14:18:48.000Z</time>
      </trkpt>
      <trkpt lat="42.97749" lon="1.93123">
        <ele>395.2</ele>
        <time>2013-11-16T14:18:49.000Z</time>
      </trkpt>
      <trkpt lat="42.97752" lon="1.93119">
        <ele>394.8</ele>
        <time>2013-11-16T14:18:50.000Z</time>
      </trkpt>
      <trkpt lat="42.97755" lon="1.93116">
        <ele>395.7</ele>
        <time>2013-11-16T14:18:51.000Z</time>
      </trkpt>
      <trkpt lat="42.97758" lon="1.93112">
        <ele>395.2</ele>
        <time>2013-11-16T14:18:52.000Z</time>
      </trkpt>
      <trkpt lat="42.97787" lon="1.93072">
        <ele>394.8</ele>
        <time>2013-11-16T14:19:01.000Z</time>
      </trkpt>
      <trkpt lat="42.97805" lon="1.93041">
        <ele>394.3</ele>
        <time>2013-11-16T14:19:07.000Z</time>
      </trkpt>
      <trkpt lat="42.97807" lon="1.93035">
        <ele>394.8</ele>
        <time>2013-11-16T14:19:08.000Z</time>
      </trkpt>
      <trkpt lat="42.97809" lon="1.93031">
        <ele>394.3</ele>
        <time>2013-11-16T14:19:09.000Z</time>
      </trkpt>
      <trkpt lat="42.97813" lon="1.93022">
        <ele>394.8</ele>
        <time>2013-11-16T14:19:11.000Z</time>
      </trkpt>
      <trkpt lat="42.97815" lon="1.93017">
        <ele>395.2</ele>
        <time>2013-11-16T14:19:12.000Z</time>
      </trkpt>
      <trkpt lat="42.9782" lon="1.93005">
        <ele>394.8</ele>
        <time>2013-11-16T14:19:14.000Z</time>
      </trkpt>
      <trkpt lat="42.97822" lon="1.93001">
        <ele>395.7</ele>
        <time>2013-11-16T14:19:15.000Z</time>
      </trkpt>
      <trkpt lat="42.97825" lon="1.92997">
        <ele>394.3</ele>
        <time>2013-11-16T14:19:16.000Z</time>
      </trkpt>
      <trkpt lat="42.97848" lon="1.92969">
        <ele>395.2</ele>
        <time>2013-11-16T14:19:25.000Z</time>
      </trkpt>
      <trkpt lat="42.97851" lon="1.92966">
        <ele>394.8</ele>
        <time>2013-11-16T14:19:26.000Z</time>
      </trkpt>
      <trkpt lat="42.97854" lon="1.92963">
        <ele>394.3</ele>
        <time>2013-11-16T14:19:27.000Z</time>
      </trkpt>
      <trkpt lat="42.97857" lon="1.9296">
        <ele>395.2</ele>
        <time>2013-11-16T14:19:28.000Z</time>
      </trkpt>
      <trkpt lat="42.9786" lon="1.92957">
        <ele>394.8</ele>
        <time>2013-11-16T14:19:29.000Z</time>
      </trkpt>
      <trkpt lat="42.9788" lon="1.92942">
        <ele>394.8</ele>
        <time>2013-11-16T14:19:35.000Z</time>
      </trkpt>
      <trkpt lat="42.97883" lon="1.92941">
        <ele>395.2</ele>
        <time>2013-11-16T14:19:36.000Z</time>
      </trkpt>
      <trkpt lat="42.97886" lon="1.92941">
        <ele>394.8</ele>
        <time>2013-11-16T14:19:37.000Z</time>
      </trkpt>
      <trkpt lat="42.97918" lon="1.92955">
        <ele>394.3</ele>
        <time>2013-11-16T14:19:46.000Z</time>
      </trkpt>
      <trkpt lat="42.97922" lon="1.92957">
        <ele>395.7</ele>
        <time>2013-11-16T14:19:47.000Z</time>
      </trkpt>
      <trkpt lat="42.97926" lon="1.92972">
        <ele>395.2</ele>
        <time>2013-11-16T14:19:51.000Z</time>
      </trkpt>
      <trkpt lat="42.97928" lon="1.9298">
        <ele>393.8</ele>
        <time>2013-11-16T14:19:53.000Z</time>
      </trkpt>
      <trkpt lat="42.97933" lon="1.92985">
        <ele>393.8</ele>
        <time>2013-11-16T14:19:55.000Z</time>
      </trkpt>
      <trkpt lat="42.97938" lon="1.9299">
        <ele>394.8</ele>
        <time>2013-11-16T14:19:57.000Z</time>
      </trkpt>
      <trkpt lat="42.97947" lon="1.93002">
        <ele>393.8</ele>
        <time>2013-11-16T14:20:01.000Z</time>
      </trkpt>
      <trkpt lat="42.9795" lon="1.93016">
        <ele>395.2</ele>
        <time>2013-11-16T14:20:05.000Z</time>
      </trkpt>
      <trkpt lat="42.97951" lon="1.9303">
        <ele>393.3</ele>
        <time>2013-11-16T14:20:08.000Z</time>
      </trkpt>
      <trkpt lat="42.97954" lon="1.93043">
        <ele>395.2</ele>
        <time>2013-11-16T14:20:11.000Z</time>
      </trkpt>
      <trkpt lat="42.97955" lon="1.93048">
        <ele>394.8</ele>
        <time>2013-11-16T14:20:12.000Z</time>
      </trkpt>
      <trkpt lat="42.97963" lon="1.93075">
        <ele>395.7</ele>
        <time>2013-11-16T14:20:19.000Z</time>
      </trkpt>
      <trkpt lat="42.9796" lon="1.93095">
        <ele>395.2</ele>
        <time>2013-11-16T14:20:24.000Z</time>
      </trkpt>
      <trkpt lat="42.97961" lon="1.93127">
        <ele>394.3</ele>
        <time>2013-11-16T14:20:33.000Z</time>
      </trkpt>
      <trkpt lat="42.97972" lon="1.93128">
        <ele>393.8</ele>
        <time>2013-11-16T14:20:40.000Z</time>
      </trkpt>
      <trkpt lat="42.97988" lon="1.93116">
        <ele>395.7</ele>
        <time>2013-11-16T14:20:49.000Z</time>
      </trkpt>
      <trkpt lat="42.97993" lon="1.93119">
        <ele>395.2</ele>
        <time>2013-11-16T14:20:51.000Z</time>
      </trkpt>
      <trkpt lat="42.98006" lon="1.93141">
        <ele>393.3</ele>
        <time>2013-11-16T14:21:00.000Z</time>
      </trkpt>
      <trkpt lat="42.98014" lon="1.93164">
        <ele>394.3</ele>
        <time>2013-11-16T14:21:07.000Z</time>
      </trkpt>
      <trkpt lat="42.98022" lon="1.93193">
        <ele>395.7</ele>
        <time>2013-11-16T14:21:14.000Z</time>
      </trkpt>
      <trkpt lat="42.98022" lon="1.932">
        <ele>394.8</ele>
        <time>2013-11-16T14:21:16.000Z</time>
      </trkpt>
      <trkpt lat="42.98022" lon="1.93212">
        <ele>394.3</ele>
        <time>2013-11-16T14:21:18.000Z</time>
      </trkpt>
      <trkpt lat="42.98036" lon="1.93248">
        <ele>395.2</ele>
        <time>2013-11-16T14:21:27.000Z</time>
      </trkpt>
      <trkpt lat="42.98054" lon="1.93252">
        <ele>395.7</ele>
        <time>2013-11-16T14:21:33.000Z</time>
      </trkpt>
      <trkpt lat="42.98089" lon="1.93243">
        <ele>396.2</ele>
        <time>2013-11-16T14:21:44.000Z</time>
      </trkpt>
      <trkpt lat="42.98092" lon="1.93242">
        <ele>396.2</ele>
        <time>2013-11-16T14:21:45.000Z</time>
      </trkpt>
      <trkpt lat="42.98113" lon="1.9322">
        <ele>395.2</ele>
        <time>2013-11-16T14:21:53.000Z</time>
      </trkpt>
      <trkpt lat="42.98121" lon="1.9321">
        <ele>393.8</ele>
        <time>2013-11-16T14:21:57.000Z</time>
      </trkpt>
      <trkpt lat="42.98124" lon="1.93207">
        <ele>396.2</ele>
        <time>2013-11-16T14:21:58.000Z</time>
      </trkpt>
      <trkpt lat="42.98135" lon="1.9319">
        <ele>394.3</ele>
        <time>2013-11-16T14:22:03.000Z</time>
      </trkpt>
      <trkpt lat="42.98153" lon="1.93162">
        <ele>394.3</ele>
        <time>2013-11-16T14:22:10.000Z</time>
      </trkpt>
      <trkpt lat="42.98175" lon="1.93126">
        <ele>394.3</ele>
        <time>2013-11-16T14:22:22.000Z</time>
      </trkpt>
      <trkpt lat="42.982" lon="1.93096">
        <ele>395.2</ele>
        <time>2013-11-16T14:22:35.000Z</time>
      </trkpt>
      <trkpt lat="42.98202" lon="1.93094">
        <ele>394.3</ele>
        <time>2013-11-16T14:22:36.000Z</time>
      </trkpt>
      <trkpt lat="42.9821" lon="1.93084">
        <ele>395.2</ele>
        <time>2013-11-16T14:22:41.000Z</time>
      </trkpt>
      <trkpt lat="42.98214" lon="1.93077">
        <ele>393.8</ele>
        <time>2013-11-16T14:22:43.000Z</time>
      </trkpt>
      <trkpt lat="42.98225" lon="1.93048">
        <ele>394.8</ele>
        <time>2013-11-16T14:22:51.000Z</time>
      </trkpt>
      <trkpt lat="42.98233" lon="1.9302">
        <ele>396.7</ele>
        <time>2013-11-16T14:22:59.000Z</time>
      </trkpt>
      <trkpt lat="42.98243" lon="1.93017">
        <ele>398.1</ele>
        <time>2013-11-16T14:23:03.000Z</time>
      </trkpt>
      <trkpt lat="42.98289" lon="1.93059">
        <ele>395.2</ele>
        <time>2013-11-16T14:23:18.000Z</time>
      </trkpt>
      <trkpt lat="42.98318" lon="1.93114">
        <ele>396.7</ele>
        <time>2013-11-16T14:23:30.000Z</time>
      </trkpt>
      <trkpt lat="42.98323" lon="1.93136">
        <ele>396.7</ele>
        <time>2013-11-16T14:23:34.000Z</time>
      </trkpt>
      <trkpt lat="42.98339" lon="1.93245">
        <ele>397.2</ele>
        <time>2013-11-16T14:23:53.000Z</time>
      </trkpt>
      <trkpt lat="42.98343" lon="1.93274">
        <ele>396.2</ele>
        <time>2013-11-16T14:23:58.000Z</time>
      </trkpt>
      <trkpt lat="42.98344" lon="1.9328">
        <ele>395.7</ele>
        <time>2013-11-16T14:23:59.000Z</time>
      </trkpt>
      <trkpt lat="42.9835" lon="1.93324">
        <ele>398.1</ele>
        <time>2013-11-16T14:24:06.000Z</time>
      </trkpt>
      <trkpt lat="42.98349" lon="1.93331">
        <ele>396.2</ele>
        <time>2013-11-16T14:24:07.000Z</time>
      </trkpt>
      <trkpt lat="42.98347" lon="1.93337">
        <ele>396.7</ele>
        <time>2013-11-16T14:24:08.000Z</time>
      </trkpt>
      <trkpt lat="42.98344" lon="1.93349">
        <ele>397.2</ele>
        <time>2013-11-16T14:24:10.000Z</time>
      </trkpt>
      <trkpt lat="42.98343" lon="1.93354">
        <ele>397.6</ele>
        <time>2013-11-16T14:24:11.000Z</time>
      </trkpt>
      <trkpt lat="42.98343" lon="1.9336">
        <ele>397.2</ele>
        <time>2013-11-16T14:24:12.000Z</time>
      </trkpt>
      <trkpt lat="42.98343" lon="1.93366">
        <ele>397.2</ele>
        <time>2013-11-16T14:24:13.000Z</time>
      </trkpt>
      <trkpt lat="42.98343" lon="1.93372">
        <ele>396.7</ele>
        <time>2013-11-16T14:24:14.000Z</time>
      </trkpt>
      <trkpt lat="42.98345" lon="1.93377">
        <ele>397.6</ele>
        <time>2013-11-16T14:24:15.000Z</time>
      </trkpt>
      <trkpt lat="42.98346" lon="1.93383">
        <ele>396.7</ele>
        <time>2013-11-16T14:24:16.000Z</time>
      </trkpt>
      <trkpt lat="42.9835" lon="1.93401">
        <ele>399.1</ele>
        <time>2013-11-16T14:24:19.000Z</time>
      </trkpt>
      <trkpt lat="42.98349" lon="1.93407">
        <ele>399.1</ele>
        <time>2013-11-16T14:24:20.000Z</time>
      </trkpt>
      <trkpt lat="42.98344" lon="1.93438">
        <ele>401</ele>
        <time>2013-11-16T14:24:26.000Z</time>
      </trkpt>
      <trkpt lat="42.98349" lon="1.93487">
        <ele>403.4</ele>
        <time>2013-11-16T14:24:36.000Z</time>
      </trkpt>
      <trkpt lat="42.98366" lon="1.93535">
        <ele>404.9</ele>
        <time>2013-11-16T14:24:49.000Z</time>
      </trkpt>
      <trkpt lat="42.98362" lon="1.93577">
        <ele>404.4</ele>
        <time>2013-11-16T14:24:59.000Z</time>
      </trkpt>
      <trkpt lat="42.98353" lon="1.93637">
        <ele>404.4</ele>
        <time>2013-11-16T14:25:11.000Z</time>
      </trkpt>
      <trkpt lat="42.98353" lon="1.93649">
        <ele>404.4</ele>
        <time>2013-11-16T14:25:13.000Z</time>
      </trkpt>
      <trkpt lat="42.98353" lon="1.93662">
        <ele>403.9</ele>
        <time>2013-11-16T14:25:15.000Z</time>
      </trkpt>
      <trkpt lat="42.98349" lon="1.93716">
        <ele>401.5</ele>
        <time>2013-11-16T14:25:23.000Z</time>
      </trkpt>
      <trkpt lat="42.98348" lon="1.93723">
        <ele>401.5</ele>
        <time>2013-11-16T14:25:24.000Z</time>
      </trkpt>
      <trkpt lat="42.98342" lon="1.93749">
        <ele>401.5</ele>
        <time>2013-11-16T14:25:28.000Z</time>
      </trkpt>
      <trkpt lat="42.98341" lon="1.93754">
        <ele>400.5</ele>
        <time>2013-11-16T14:25:29.000Z</time>
      </trkpt>
      <trkpt lat="42.9833" lon="1.93782">
        <ele>399.6</ele>
        <time>2013-11-16T14:25:39.000Z</time>
      </trkpt>
      <trkpt lat="42.98326" lon="1.93783">
        <ele>400.5</ele>
        <time>2013-11-16T14:25:49.000Z</time>
      </trkpt>
      <trkpt lat="42.98325" lon="1.93782">
        <ele>400.5</ele>
        <time>2013-11-16T14:25:50.000Z</time>
      </trkpt>
      <trkpt lat="42.98325" lon="1.93782">
        <ele>397.2</ele>
        <time>2013-11-16T14:25:52.000Z</time>
      </trkpt>
      <trkpt lat="42.98325" lon="1.93782">
        <ele>404.4</ele>
        <time>2013-11-16T17:22:00.000Z</time>
      </trkpt>
      <trkpt lat="42.98325" lon="1.93782">
        <ele>161.2</ele>
        <time>2013-11-16T17:22:01.000Z</time>
      </trkpt>
      <trkpt lat="42.98325" lon="1.93782">
        <ele>161.2</ele>
        <time>2013-11-16T17:22:02.000Z</time>
      </trkpt>
      <trkpt lat="42.98325" lon="1.93782">
        <ele>159.7</ele>
        <time>2013-11-16T17:22:04.000Z</time>
      </trkpt>
      <trkpt lat="42.98325" lon="1.93782">
        <ele>161.2</ele>
        <time>2013-11-16T17:22:12.000Z</time>
      </trkpt>
      <trkpt lat="42.98325" lon="1.93782">
        <ele>159.7</ele>
        <time>2013-11-16T17:22:14.000Z</time>
      </trkpt>
      <trkpt lat="42.98325" lon="1.93782">
        <ele>161.6</ele>
        <time>2013-11-16T17:22:15.000Z</time>
      </trkpt>
      <trkpt lat="42.98325" lon="1.93782">
        <ele>160.2</ele>
        <time>2013-11-16T17:22:16.000Z</time>
      </trkpt>
      <trkpt lat="42.98325" lon="1.93782">
        <ele>163.6</ele>
        <time>2013-11-16T17:22:42.000Z</time>
      </trkpt>
      <trkpt lat="42.98325" lon="1.93782">
        <ele>163.6</ele>
        <time>2013-11-16T17:22:43.000Z</time>
      </trkpt>
      <trkpt lat="42.98325" lon="1.93782">
        <ele>160.2</ele>
        <time>2013-11-16T17:22:44.000Z</time>
      </trkpt>
    </trkseg>
  </trk>
</gpx>